<?xml version="1.0" encoding="UTF-8" standalone="no" ?>
<gpx xmlns="http://www.topografix.com/GPX/1/1" xmlns:xsi="http://www.w3.org/2001/XMLSchema-instance" xsi:schemaLocation="http://www.topografix.com/GPX/1/1 http://www.topografix.com/GPX/1/1/gpx.xsd" version="1.1" creator="VisuGPX - https://www.visugpx.com">
  <metadata>
    <name>Tête Pelouse</name>
    <desc><![CDATA[classique par Gd Crêt           ]]></desc>
  </metadata>
  <trk>
    <name><![CDATA[20190403124801-dcW7X]]></name>
    <trkseg>
      <trkpt lat="45.92244" lon="6.48417">
        <ele>1454.13</ele>
        <time>2019-03-08T09:47:56Z</time>
      </trkpt>
      <trkpt lat="45.92244" lon="6.48418">
        <ele>1394.05</ele>
        <time>2019-03-08T09:47:57Z</time>
      </trkpt>
      <trkpt lat="45.92244" lon="6.48419">
        <ele>1394.05</ele>
        <time>2019-03-08T09:47:58Z</time>
      </trkpt>
      <trkpt lat="45.92244" lon="6.48422">
        <ele>1454.13</ele>
        <time>2019-03-08T09:48:01Z</time>
      </trkpt>
      <trkpt lat="45.92244" lon="6.48423">
        <ele>1454.13</ele>
        <time>2019-03-08T09:48:02Z</time>
      </trkpt>
      <trkpt lat="45.92242" lon="6.48428">
        <ele>1454.61</ele>
        <time>2019-03-08T09:48:05Z</time>
      </trkpt>
      <trkpt lat="45.92221" lon="6.48459">
        <ele>1452.69</ele>
        <time>2019-03-08T09:48:24Z</time>
      </trkpt>
      <trkpt lat="45.9222" lon="6.4846">
        <ele>1452.69</ele>
        <time>2019-03-08T09:48:25Z</time>
      </trkpt>
      <trkpt lat="45.92219" lon="6.48461">
        <ele>1452.69</ele>
        <time>2019-03-08T09:48:26Z</time>
      </trkpt>
      <trkpt lat="45.92218" lon="6.48462">
        <ele>1453.17</ele>
        <time>2019-03-08T09:48:27Z</time>
      </trkpt>
      <trkpt lat="45.92217" lon="6.48463">
        <ele>1453.17</ele>
        <time>2019-03-08T09:48:28Z</time>
      </trkpt>
      <trkpt lat="45.92216" lon="6.48464">
        <ele>1453.17</ele>
        <time>2019-03-08T09:48:29Z</time>
      </trkpt>
      <trkpt lat="45.92215" lon="6.48465">
        <ele>1453.17</ele>
        <time>2019-03-08T09:48:30Z</time>
      </trkpt>
      <trkpt lat="45.92215" lon="6.48466">
        <ele>1453.65</ele>
        <time>2019-03-08T09:48:31Z</time>
      </trkpt>
      <trkpt lat="45.92214" lon="6.48467">
        <ele>1453.65</ele>
        <time>2019-03-08T09:48:32Z</time>
      </trkpt>
      <trkpt lat="45.92196" lon="6.48496">
        <ele>1455.57</ele>
        <time>2019-03-08T09:48:51Z</time>
      </trkpt>
      <trkpt lat="45.92195" lon="6.48498">
        <ele>1456.05</ele>
        <time>2019-03-08T09:48:52Z</time>
      </trkpt>
      <trkpt lat="45.92194" lon="6.48499">
        <ele>1456.05</ele>
        <time>2019-03-08T09:48:53Z</time>
      </trkpt>
      <trkpt lat="45.92178" lon="6.48535">
        <ele>1459.42</ele>
        <time>2019-03-08T09:49:16Z</time>
      </trkpt>
      <trkpt lat="45.92164" lon="6.48565">
        <ele>1462.3</ele>
        <time>2019-03-08T09:49:36Z</time>
      </trkpt>
      <trkpt lat="45.92146" lon="6.48603">
        <ele>1465.19</ele>
        <time>2019-03-08T09:50:01Z</time>
      </trkpt>
      <trkpt lat="45.9213" lon="6.48648">
        <ele>1467.59</ele>
        <time>2019-03-08T09:50:28Z</time>
      </trkpt>
      <trkpt lat="45.9213" lon="6.4865">
        <ele>1467.59</ele>
        <time>2019-03-08T09:50:29Z</time>
      </trkpt>
      <trkpt lat="45.92131" lon="6.48652">
        <ele>1467.59</ele>
        <time>2019-03-08T09:50:30Z</time>
      </trkpt>
      <trkpt lat="45.92131" lon="6.48653">
        <ele>1468.07</ele>
        <time>2019-03-08T09:50:31Z</time>
      </trkpt>
      <trkpt lat="45.9213" lon="6.48655">
        <ele>1468.07</ele>
        <time>2019-03-08T09:50:32Z</time>
      </trkpt>
      <trkpt lat="45.92131" lon="6.48657">
        <ele>1468.55</ele>
        <time>2019-03-08T09:50:33Z</time>
      </trkpt>
      <trkpt lat="45.92132" lon="6.48659">
        <ele>1468.55</ele>
        <time>2019-03-08T09:50:34Z</time>
      </trkpt>
      <trkpt lat="45.92132" lon="6.48661">
        <ele>1468.55</ele>
        <time>2019-03-08T09:50:35Z</time>
      </trkpt>
      <trkpt lat="45.92135" lon="6.48676">
        <ele>1470.47</ele>
        <time>2019-03-08T09:50:45Z</time>
      </trkpt>
      <trkpt lat="45.92164" lon="6.48725">
        <ele>1470.47</ele>
        <time>2019-03-08T09:51:12Z</time>
      </trkpt>
      <trkpt lat="45.92176" lon="6.48772">
        <ele>1467.11</ele>
        <time>2019-03-08T09:51:29Z</time>
      </trkpt>
      <trkpt lat="45.92178" lon="6.48832">
        <ele>1463.74</ele>
        <time>2019-03-08T09:51:48Z</time>
      </trkpt>
      <trkpt lat="45.92165" lon="6.48869">
        <ele>1460.38</ele>
        <time>2019-03-08T09:52:00Z</time>
      </trkpt>
      <trkpt lat="45.92164" lon="6.48929">
        <ele>1463.74</ele>
        <time>2019-03-08T09:52:29Z</time>
      </trkpt>
      <trkpt lat="45.92164" lon="6.48951">
        <ele>1466.15</ele>
        <time>2019-03-08T09:52:42Z</time>
      </trkpt>
      <trkpt lat="45.92165" lon="6.48966">
        <ele>1467.11</ele>
        <time>2019-03-08T09:52:50Z</time>
      </trkpt>
      <trkpt lat="45.92165" lon="6.48968">
        <ele>1467.11</ele>
        <time>2019-03-08T09:52:51Z</time>
      </trkpt>
      <trkpt lat="45.92165" lon="6.4897">
        <ele>1467.59</ele>
        <time>2019-03-08T09:52:52Z</time>
      </trkpt>
      <trkpt lat="45.92166" lon="6.48993">
        <ele>1469.51</ele>
        <time>2019-03-08T09:53:05Z</time>
      </trkpt>
      <trkpt lat="45.92166" lon="6.48994">
        <ele>1469.99</ele>
        <time>2019-03-08T09:53:06Z</time>
      </trkpt>
      <trkpt lat="45.92166" lon="6.48996">
        <ele>1469.99</ele>
        <time>2019-03-08T09:53:07Z</time>
      </trkpt>
      <trkpt lat="45.92165" lon="6.49017">
        <ele>1472.88</ele>
        <time>2019-03-08T09:53:21Z</time>
      </trkpt>
      <trkpt lat="45.92165" lon="6.49042">
        <ele>1476.24</ele>
        <time>2019-03-08T09:53:36Z</time>
      </trkpt>
      <trkpt lat="45.92165" lon="6.49049">
        <ele>1477.2</ele>
        <time>2019-03-08T09:53:40Z</time>
      </trkpt>
      <trkpt lat="45.92164" lon="6.49051">
        <ele>1477.2</ele>
        <time>2019-03-08T09:53:41Z</time>
      </trkpt>
      <trkpt lat="45.92164" lon="6.49052">
        <ele>1477.2</ele>
        <time>2019-03-08T09:53:42Z</time>
      </trkpt>
      <trkpt lat="45.92164" lon="6.49054">
        <ele>1477.68</ele>
        <time>2019-03-08T09:53:43Z</time>
      </trkpt>
      <trkpt lat="45.92164" lon="6.49056">
        <ele>1477.68</ele>
        <time>2019-03-08T09:53:44Z</time>
      </trkpt>
      <trkpt lat="45.92165" lon="6.49057">
        <ele>1477.68</ele>
        <time>2019-03-08T09:53:45Z</time>
      </trkpt>
      <trkpt lat="45.92165" lon="6.49059">
        <ele>1478.16</ele>
        <time>2019-03-08T09:53:46Z</time>
      </trkpt>
      <trkpt lat="45.92165" lon="6.49076">
        <ele>1481.05</ele>
        <time>2019-03-08T09:53:59Z</time>
      </trkpt>
      <trkpt lat="45.92166" lon="6.49092">
        <ele>1484.41</ele>
        <time>2019-03-08T09:54:12Z</time>
      </trkpt>
      <trkpt lat="45.9217" lon="6.49114">
        <ele>1487.3</ele>
        <time>2019-03-08T09:54:27Z</time>
      </trkpt>
      <trkpt lat="45.9217" lon="6.49118">
        <ele>1488.26</ele>
        <time>2019-03-08T09:54:31Z</time>
      </trkpt>
      <trkpt lat="45.92171" lon="6.49121">
        <ele>1489.22</ele>
        <time>2019-03-08T09:54:34Z</time>
      </trkpt>
      <trkpt lat="45.92171" lon="6.49136">
        <ele>1492.1</ele>
        <time>2019-03-08T09:54:46Z</time>
      </trkpt>
      <trkpt lat="45.92174" lon="6.49151">
        <ele>1495.47</ele>
        <time>2019-03-08T09:54:58Z</time>
      </trkpt>
      <trkpt lat="45.92178" lon="6.4916">
        <ele>1496.91</ele>
        <time>2019-03-08T09:55:06Z</time>
      </trkpt>
      <trkpt lat="45.92178" lon="6.49162">
        <ele>1497.39</ele>
        <time>2019-03-08T09:55:07Z</time>
      </trkpt>
      <trkpt lat="45.92182" lon="6.49176">
        <ele>1500.27</ele>
        <time>2019-03-08T09:55:19Z</time>
      </trkpt>
      <trkpt lat="45.92185" lon="6.49189">
        <ele>1503.64</ele>
        <time>2019-03-08T09:55:31Z</time>
      </trkpt>
      <trkpt lat="45.92191" lon="6.49206">
        <ele>1507</ele>
        <time>2019-03-08T09:55:45Z</time>
      </trkpt>
      <trkpt lat="45.92194" lon="6.49217">
        <ele>1509.41</ele>
        <time>2019-03-08T09:55:53Z</time>
      </trkpt>
      <trkpt lat="45.92199" lon="6.49231">
        <ele>1512.29</ele>
        <time>2019-03-08T09:56:06Z</time>
      </trkpt>
      <trkpt lat="45.92199" lon="6.49245">
        <ele>1515.66</ele>
        <time>2019-03-08T09:56:18Z</time>
      </trkpt>
      <trkpt lat="45.92199" lon="6.49247">
        <ele>1516.14</ele>
        <time>2019-03-08T09:56:20Z</time>
      </trkpt>
      <trkpt lat="45.922" lon="6.49253">
        <ele>1517.58</ele>
        <time>2019-03-08T09:56:25Z</time>
      </trkpt>
      <trkpt lat="45.922" lon="6.49255">
        <ele>1518.06</ele>
        <time>2019-03-08T09:56:27Z</time>
      </trkpt>
      <trkpt lat="45.92199" lon="6.49256">
        <ele>1518.06</ele>
        <time>2019-03-08T09:56:28Z</time>
      </trkpt>
      <trkpt lat="45.92197" lon="6.49267">
        <ele>1521.42</ele>
        <time>2019-03-08T09:56:40Z</time>
      </trkpt>
      <trkpt lat="45.92194" lon="6.49279">
        <ele>1524.79</ele>
        <time>2019-03-08T09:56:52Z</time>
      </trkpt>
      <trkpt lat="45.92196" lon="6.49283">
        <ele>1526.23</ele>
        <time>2019-03-08T09:56:57Z</time>
      </trkpt>
      <trkpt lat="45.92197" lon="6.49284">
        <ele>1526.23</ele>
        <time>2019-03-08T09:56:58Z</time>
      </trkpt>
      <trkpt lat="45.92197" lon="6.49285">
        <ele>1526.23</ele>
        <time>2019-03-08T09:56:59Z</time>
      </trkpt>
      <trkpt lat="45.92203" lon="6.49299">
        <ele>1529.59</ele>
        <time>2019-03-08T09:57:12Z</time>
      </trkpt>
      <trkpt lat="45.92201" lon="6.49307">
        <ele>1531.04</ele>
        <time>2019-03-08T09:57:18Z</time>
      </trkpt>
      <trkpt lat="45.92201" lon="6.49308">
        <ele>1531.04</ele>
        <time>2019-03-08T09:57:19Z</time>
      </trkpt>
      <trkpt lat="45.922" lon="6.4931">
        <ele>1531.52</ele>
        <time>2019-03-08T09:57:20Z</time>
      </trkpt>
      <trkpt lat="45.92199" lon="6.49311">
        <ele>1531.52</ele>
        <time>2019-03-08T09:57:21Z</time>
      </trkpt>
      <trkpt lat="45.92198" lon="6.49312">
        <ele>1532</ele>
        <time>2019-03-08T09:57:22Z</time>
      </trkpt>
      <trkpt lat="45.92194" lon="6.4932">
        <ele>1534.4</ele>
        <time>2019-03-08T09:57:30Z</time>
      </trkpt>
      <trkpt lat="45.92193" lon="6.49322">
        <ele>1534.88</ele>
        <time>2019-03-08T09:57:32Z</time>
      </trkpt>
      <trkpt lat="45.92192" lon="6.49323">
        <ele>1534.88</ele>
        <time>2019-03-08T09:57:33Z</time>
      </trkpt>
      <trkpt lat="45.92196" lon="6.49337">
        <ele>1537.77</ele>
        <time>2019-03-08T09:57:46Z</time>
      </trkpt>
      <trkpt lat="45.92197" lon="6.49354">
        <ele>1541.13</ele>
        <time>2019-03-08T09:58:00Z</time>
      </trkpt>
      <trkpt lat="45.92197" lon="6.49356">
        <ele>1541.61</ele>
        <time>2019-03-08T09:58:02Z</time>
      </trkpt>
      <trkpt lat="45.92198" lon="6.49357">
        <ele>1542.09</ele>
        <time>2019-03-08T09:58:03Z</time>
      </trkpt>
      <trkpt lat="45.922" lon="6.4938">
        <ele>1544.5</ele>
        <time>2019-03-08T09:58:19Z</time>
      </trkpt>
      <trkpt lat="45.92203" lon="6.49396">
        <ele>1547.38</ele>
        <time>2019-03-08T09:58:32Z</time>
      </trkpt>
      <trkpt lat="45.92207" lon="6.49404">
        <ele>1549.78</ele>
        <time>2019-03-08T09:58:41Z</time>
      </trkpt>
      <trkpt lat="45.9221" lon="6.49412">
        <ele>1552.19</ele>
        <time>2019-03-08T09:58:49Z</time>
      </trkpt>
      <trkpt lat="45.92215" lon="6.49436">
        <ele>1555.07</ele>
        <time>2019-03-08T09:59:06Z</time>
      </trkpt>
      <trkpt lat="45.92224" lon="6.49456">
        <ele>1558.43</ele>
        <time>2019-03-08T09:59:23Z</time>
      </trkpt>
      <trkpt lat="45.92236" lon="6.49463">
        <ele>1561.8</ele>
        <time>2019-03-08T09:59:37Z</time>
      </trkpt>
      <trkpt lat="45.92246" lon="6.49471">
        <ele>1564.68</ele>
        <time>2019-03-08T09:59:50Z</time>
      </trkpt>
      <trkpt lat="45.92251" lon="6.49482">
        <ele>1567.57</ele>
        <time>2019-03-08T10:00:02Z</time>
      </trkpt>
      <trkpt lat="45.92256" lon="6.49491">
        <ele>1570.93</ele>
        <time>2019-03-08T10:00:14Z</time>
      </trkpt>
      <trkpt lat="45.92261" lon="6.49499">
        <ele>1573.33</ele>
        <time>2019-03-08T10:00:23Z</time>
      </trkpt>
      <trkpt lat="45.92261" lon="6.49501">
        <ele>1573.82</ele>
        <time>2019-03-08T10:00:25Z</time>
      </trkpt>
      <trkpt lat="45.9226" lon="6.49502">
        <ele>1573.82</ele>
        <time>2019-03-08T10:00:26Z</time>
      </trkpt>
      <trkpt lat="45.92252" lon="6.49513">
        <ele>1577.18</ele>
        <time>2019-03-08T10:00:39Z</time>
      </trkpt>
      <trkpt lat="45.92245" lon="6.49521">
        <ele>1580.54</ele>
        <time>2019-03-08T10:00:49Z</time>
      </trkpt>
      <trkpt lat="45.92244" lon="6.49523">
        <ele>1580.54</ele>
        <time>2019-03-08T10:00:50Z</time>
      </trkpt>
      <trkpt lat="45.92244" lon="6.49523">
        <ele>1581.03</ele>
        <time>2019-03-08T10:00:51Z</time>
      </trkpt>
      <trkpt lat="45.9224" lon="6.49532">
        <ele>1583.91</ele>
        <time>2019-03-08T10:01:03Z</time>
      </trkpt>
      <trkpt lat="45.92241" lon="6.49533">
        <ele>1584.39</ele>
        <time>2019-03-08T10:01:04Z</time>
      </trkpt>
      <trkpt lat="45.92248" lon="6.4954">
        <ele>1587.27</ele>
        <time>2019-03-08T10:01:16Z</time>
      </trkpt>
      <trkpt lat="45.92252" lon="6.49543">
        <ele>1588.72</ele>
        <time>2019-03-08T10:01:22Z</time>
      </trkpt>
      <trkpt lat="45.92261" lon="6.49551">
        <ele>1591.6</ele>
        <time>2019-03-08T10:01:33Z</time>
      </trkpt>
      <trkpt lat="45.92266" lon="6.49556">
        <ele>1594</ele>
        <time>2019-03-08T10:01:41Z</time>
      </trkpt>
      <trkpt lat="45.92274" lon="6.49565">
        <ele>1596.89</ele>
        <time>2019-03-08T10:01:53Z</time>
      </trkpt>
      <trkpt lat="45.92282" lon="6.49575">
        <ele>1600.25</ele>
        <time>2019-03-08T10:02:05Z</time>
      </trkpt>
      <trkpt lat="45.92287" lon="6.49586">
        <ele>1603.14</ele>
        <time>2019-03-08T10:02:18Z</time>
      </trkpt>
      <trkpt lat="45.92289" lon="6.49587">
        <ele>1603.62</ele>
        <time>2019-03-08T10:02:20Z</time>
      </trkpt>
      <trkpt lat="45.92289" lon="6.49588">
        <ele>1604.1</ele>
        <time>2019-03-08T10:02:21Z</time>
      </trkpt>
      <trkpt lat="45.92295" lon="6.49602">
        <ele>1606.98</ele>
        <time>2019-03-08T10:02:33Z</time>
      </trkpt>
      <trkpt lat="45.92299" lon="6.49613">
        <ele>1610.35</ele>
        <time>2019-03-08T10:02:45Z</time>
      </trkpt>
      <trkpt lat="45.92303" lon="6.49627">
        <ele>1613.23</ele>
        <time>2019-03-08T10:02:57Z</time>
      </trkpt>
      <trkpt lat="45.92306" lon="6.4964">
        <ele>1616.59</ele>
        <time>2019-03-08T10:03:10Z</time>
      </trkpt>
      <trkpt lat="45.92299" lon="6.49642">
        <ele>1618.04</ele>
        <time>2019-03-08T10:03:18Z</time>
      </trkpt>
      <trkpt lat="45.92288" lon="6.49644">
        <ele>1621.4</ele>
        <time>2019-03-08T10:03:32Z</time>
      </trkpt>
      <trkpt lat="45.92282" lon="6.49649">
        <ele>1624.28</ele>
        <time>2019-03-08T10:04:38Z</time>
      </trkpt>
      <trkpt lat="45.92281" lon="6.4965">
        <ele>1624.77</ele>
        <time>2019-03-08T10:04:39Z</time>
      </trkpt>
      <trkpt lat="45.92275" lon="6.49658">
        <ele>1628.13</ele>
        <time>2019-03-08T10:04:51Z</time>
      </trkpt>
      <trkpt lat="45.92274" lon="6.49659">
        <ele>1628.13</ele>
        <time>2019-03-08T10:04:52Z</time>
      </trkpt>
      <trkpt lat="45.92268" lon="6.49664">
        <ele>1631.49</ele>
        <time>2019-03-08T10:05:03Z</time>
      </trkpt>
      <trkpt lat="45.9226" lon="6.4967">
        <ele>1634.38</ele>
        <time>2019-03-08T10:05:14Z</time>
      </trkpt>
      <trkpt lat="45.92254" lon="6.49677">
        <ele>1637.26</ele>
        <time>2019-03-08T10:05:25Z</time>
      </trkpt>
      <trkpt lat="45.92248" lon="6.49685">
        <ele>1640.63</ele>
        <time>2019-03-08T10:05:37Z</time>
      </trkpt>
      <trkpt lat="45.9224" lon="6.49689">
        <ele>1643.03</ele>
        <time>2019-03-08T10:05:49Z</time>
      </trkpt>
      <trkpt lat="45.92228" lon="6.49697">
        <ele>1646.4</ele>
        <time>2019-03-08T10:06:03Z</time>
      </trkpt>
      <trkpt lat="45.92216" lon="6.49698">
        <ele>1649.76</ele>
        <time>2019-03-08T10:06:18Z</time>
      </trkpt>
      <trkpt lat="45.92205" lon="6.49695">
        <ele>1653.12</ele>
        <time>2019-03-08T10:06:31Z</time>
      </trkpt>
      <trkpt lat="45.92196" lon="6.49694">
        <ele>1656.01</ele>
        <time>2019-03-08T10:06:44Z</time>
      </trkpt>
      <trkpt lat="45.92186" lon="6.49695">
        <ele>1659.37</ele>
        <time>2019-03-08T10:06:57Z</time>
      </trkpt>
      <trkpt lat="45.92176" lon="6.49696">
        <ele>1662.26</ele>
        <time>2019-03-08T10:07:09Z</time>
      </trkpt>
      <trkpt lat="45.92167" lon="6.49701">
        <ele>1665.62</ele>
        <time>2019-03-08T10:07:22Z</time>
      </trkpt>
      <trkpt lat="45.92162" lon="6.49707">
        <ele>1668.51</ele>
        <time>2019-03-08T10:07:34Z</time>
      </trkpt>
      <trkpt lat="45.92162" lon="6.49712">
        <ele>1669.47</ele>
        <time>2019-03-08T10:07:38Z</time>
      </trkpt>
      <trkpt lat="45.92165" lon="6.49725">
        <ele>1672.83</ele>
        <time>2019-03-08T10:07:50Z</time>
      </trkpt>
      <trkpt lat="45.92167" lon="6.49728">
        <ele>1673.31</ele>
        <time>2019-03-08T10:07:54Z</time>
      </trkpt>
      <trkpt lat="45.92172" lon="6.49741">
        <ele>1676.68</ele>
        <time>2019-03-08T10:08:07Z</time>
      </trkpt>
      <trkpt lat="45.92173" lon="6.4975">
        <ele>1679.08</ele>
        <time>2019-03-08T10:08:16Z</time>
      </trkpt>
      <trkpt lat="45.92175" lon="6.49757">
        <ele>1680.52</ele>
        <time>2019-03-08T10:08:23Z</time>
      </trkpt>
      <trkpt lat="45.92168" lon="6.49764">
        <ele>1683.41</ele>
        <time>2019-03-08T10:08:33Z</time>
      </trkpt>
      <trkpt lat="45.92166" lon="6.49765">
        <ele>1683.89</ele>
        <time>2019-03-08T10:08:35Z</time>
      </trkpt>
      <trkpt lat="45.92157" lon="6.49769">
        <ele>1686.77</ele>
        <time>2019-03-08T10:08:47Z</time>
      </trkpt>
      <trkpt lat="45.92146" lon="6.49773">
        <ele>1690.14</ele>
        <time>2019-03-08T10:09:01Z</time>
      </trkpt>
      <trkpt lat="45.92136" lon="6.49774">
        <ele>1693.02</ele>
        <time>2019-03-08T10:09:14Z</time>
      </trkpt>
      <trkpt lat="45.9213" lon="6.49775">
        <ele>1696.38</ele>
        <time>2019-03-08T10:09:26Z</time>
      </trkpt>
      <trkpt lat="45.9213" lon="6.49784">
        <ele>1698.79</ele>
        <time>2019-03-08T10:09:36Z</time>
      </trkpt>
      <trkpt lat="45.9213" lon="6.49796">
        <ele>1702.15</ele>
        <time>2019-03-08T10:09:48Z</time>
      </trkpt>
      <trkpt lat="45.9213" lon="6.49809">
        <ele>1705.04</ele>
        <time>2019-03-08T10:10:00Z</time>
      </trkpt>
      <trkpt lat="45.92124" lon="6.49821">
        <ele>1708.4</ele>
        <time>2019-03-08T10:10:14Z</time>
      </trkpt>
      <trkpt lat="45.9212" lon="6.49829">
        <ele>1710.32</ele>
        <time>2019-03-08T10:10:23Z</time>
      </trkpt>
      <trkpt lat="45.92116" lon="6.49837">
        <ele>1713.69</ele>
        <time>2019-03-08T10:10:34Z</time>
      </trkpt>
      <trkpt lat="45.92112" lon="6.49843">
        <ele>1715.13</ele>
        <time>2019-03-08T10:10:41Z</time>
      </trkpt>
      <trkpt lat="45.92111" lon="6.49844">
        <ele>1715.61</ele>
        <time>2019-03-08T10:10:42Z</time>
      </trkpt>
      <trkpt lat="45.92108" lon="6.49845">
        <ele>1716.57</ele>
        <time>2019-03-08T10:10:46Z</time>
      </trkpt>
      <trkpt lat="45.92107" lon="6.49844">
        <ele>1717.05</ele>
        <time>2019-03-08T10:10:47Z</time>
      </trkpt>
      <trkpt lat="45.92106" lon="6.49844">
        <ele>1717.53</ele>
        <time>2019-03-08T10:10:48Z</time>
      </trkpt>
      <trkpt lat="45.92095" lon="6.49837">
        <ele>1720.42</ele>
        <time>2019-03-08T10:11:02Z</time>
      </trkpt>
      <trkpt lat="45.92083" lon="6.4983">
        <ele>1723.78</ele>
        <time>2019-03-08T10:11:17Z</time>
      </trkpt>
      <trkpt lat="45.9207" lon="6.49825">
        <ele>1726.67</ele>
        <time>2019-03-08T10:11:32Z</time>
      </trkpt>
      <trkpt lat="45.9207" lon="6.49832">
        <ele>1729.07</ele>
        <time>2019-03-08T10:11:42Z</time>
      </trkpt>
      <trkpt lat="45.92071" lon="6.49847">
        <ele>1732.43</ele>
        <time>2019-03-08T10:11:56Z</time>
      </trkpt>
      <trkpt lat="45.92071" lon="6.49861">
        <ele>1735.8</ele>
        <time>2019-03-08T10:12:09Z</time>
      </trkpt>
      <trkpt lat="45.92069" lon="6.49879">
        <ele>1738.68</ele>
        <time>2019-03-08T10:12:23Z</time>
      </trkpt>
      <trkpt lat="45.92067" lon="6.49893">
        <ele>1742.05</ele>
        <time>2019-03-08T10:12:36Z</time>
      </trkpt>
      <trkpt lat="45.9206" lon="6.49895">
        <ele>1744.45</ele>
        <time>2019-03-08T10:12:49Z</time>
      </trkpt>
      <trkpt lat="45.92052" lon="6.49886">
        <ele>1747.81</ele>
        <time>2019-03-08T10:13:01Z</time>
      </trkpt>
      <trkpt lat="45.92051" lon="6.49885">
        <ele>1747.81</ele>
        <time>2019-03-08T10:13:02Z</time>
      </trkpt>
      <trkpt lat="45.92049" lon="6.49884">
        <ele>1747.81</ele>
        <time>2019-03-08T10:13:04Z</time>
      </trkpt>
      <trkpt lat="45.92049" lon="6.49883">
        <ele>1748.29</ele>
        <time>2019-03-08T10:13:05Z</time>
      </trkpt>
      <trkpt lat="45.92043" lon="6.49885">
        <ele>1751.18</ele>
        <time>2019-03-08T10:13:18Z</time>
      </trkpt>
      <trkpt lat="45.92043" lon="6.49893">
        <ele>1753.1</ele>
        <time>2019-03-08T10:13:25Z</time>
      </trkpt>
      <trkpt lat="45.92043" lon="6.49908">
        <ele>1755.99</ele>
        <time>2019-03-08T10:13:40Z</time>
      </trkpt>
      <trkpt lat="45.92042" lon="6.49923">
        <ele>1759.83</ele>
        <time>2019-03-08T10:13:53Z</time>
      </trkpt>
      <trkpt lat="45.92036" lon="6.49921">
        <ele>1761.27</ele>
        <time>2019-03-08T10:14:00Z</time>
      </trkpt>
      <trkpt lat="45.92035" lon="6.49921">
        <ele>1761.75</ele>
        <time>2019-03-08T10:14:01Z</time>
      </trkpt>
      <trkpt lat="45.92035" lon="6.4992">
        <ele>1762.23</ele>
        <time>2019-03-08T10:14:02Z</time>
      </trkpt>
      <trkpt lat="45.92034" lon="6.4992">
        <ele>1762.23</ele>
        <time>2019-03-08T10:14:03Z</time>
      </trkpt>
      <trkpt lat="45.92033" lon="6.49918">
        <ele>1763.2</ele>
        <time>2019-03-08T10:14:05Z</time>
      </trkpt>
      <trkpt lat="45.92031" lon="6.49917">
        <ele>1763.68</ele>
        <time>2019-03-08T10:14:08Z</time>
      </trkpt>
      <trkpt lat="45.92026" lon="6.4991">
        <ele>1767.04</ele>
        <time>2019-03-08T10:14:22Z</time>
      </trkpt>
      <trkpt lat="45.92023" lon="6.49907">
        <ele>1767.52</ele>
        <time>2019-03-08T10:14:25Z</time>
      </trkpt>
      <trkpt lat="45.92022" lon="6.49907">
        <ele>1768</ele>
        <time>2019-03-08T10:14:26Z</time>
      </trkpt>
      <trkpt lat="45.9202" lon="6.49905">
        <ele>1768</ele>
        <time>2019-03-08T10:14:27Z</time>
      </trkpt>
      <trkpt lat="45.9202" lon="6.49905">
        <ele>1768.48</ele>
        <time>2019-03-08T10:14:28Z</time>
      </trkpt>
      <trkpt lat="45.92019" lon="6.49904">
        <ele>1768.96</ele>
        <time>2019-03-08T10:14:29Z</time>
      </trkpt>
      <trkpt lat="45.92009" lon="6.499">
        <ele>1771.85</ele>
        <time>2019-03-08T10:14:42Z</time>
      </trkpt>
      <trkpt lat="45.92008" lon="6.499">
        <ele>1771.85</ele>
        <time>2019-03-08T10:14:43Z</time>
      </trkpt>
      <trkpt lat="45.92007" lon="6.499">
        <ele>1771.85</ele>
        <time>2019-03-08T10:14:44Z</time>
      </trkpt>
      <trkpt lat="45.92006" lon="6.49899">
        <ele>1771.85</ele>
        <time>2019-03-08T10:14:45Z</time>
      </trkpt>
      <trkpt lat="45.92004" lon="6.49899">
        <ele>1772.33</ele>
        <time>2019-03-08T10:14:46Z</time>
      </trkpt>
      <trkpt lat="45.92003" lon="6.49898">
        <ele>1772.33</ele>
        <time>2019-03-08T10:14:47Z</time>
      </trkpt>
      <trkpt lat="45.92002" lon="6.49898">
        <ele>1772.81</ele>
        <time>2019-03-08T10:14:48Z</time>
      </trkpt>
      <trkpt lat="45.91995" lon="6.49888">
        <ele>1775.69</ele>
        <time>2019-03-08T10:15:01Z</time>
      </trkpt>
      <trkpt lat="45.91993" lon="6.49887">
        <ele>1776.17</ele>
        <time>2019-03-08T10:15:03Z</time>
      </trkpt>
      <trkpt lat="45.91991" lon="6.49886">
        <ele>1776.65</ele>
        <time>2019-03-08T10:15:05Z</time>
      </trkpt>
      <trkpt lat="45.91988" lon="6.49887">
        <ele>1777.61</ele>
        <time>2019-03-08T10:15:08Z</time>
      </trkpt>
      <trkpt lat="45.91987" lon="6.49888">
        <ele>1778.1</ele>
        <time>2019-03-08T10:15:09Z</time>
      </trkpt>
      <trkpt lat="45.91986" lon="6.49897">
        <ele>1780.02</ele>
        <time>2019-03-08T10:15:18Z</time>
      </trkpt>
      <trkpt lat="45.91985" lon="6.49898">
        <ele>1780.5</ele>
        <time>2019-03-08T10:15:19Z</time>
      </trkpt>
      <trkpt lat="45.91987" lon="6.499">
        <ele>1780.98</ele>
        <time>2019-03-08T10:15:21Z</time>
      </trkpt>
      <trkpt lat="45.91988" lon="6.49908">
        <ele>1782.9</ele>
        <time>2019-03-08T10:15:30Z</time>
      </trkpt>
      <trkpt lat="45.91988" lon="6.49919">
        <ele>1786.27</ele>
        <time>2019-03-08T10:15:42Z</time>
      </trkpt>
      <trkpt lat="45.91989" lon="6.4992">
        <ele>1786.27</ele>
        <time>2019-03-08T10:15:43Z</time>
      </trkpt>
      <trkpt lat="45.91989" lon="6.49921">
        <ele>1786.75</ele>
        <time>2019-03-08T10:15:44Z</time>
      </trkpt>
      <trkpt lat="45.91988" lon="6.49923">
        <ele>1787.23</ele>
        <time>2019-03-08T10:15:46Z</time>
      </trkpt>
      <trkpt lat="45.91989" lon="6.49925">
        <ele>1787.71</ele>
        <time>2019-03-08T10:15:48Z</time>
      </trkpt>
      <trkpt lat="45.91989" lon="6.49927">
        <ele>1788.19</ele>
        <time>2019-03-08T10:15:49Z</time>
      </trkpt>
      <trkpt lat="45.9199" lon="6.49931">
        <ele>1789.15</ele>
        <time>2019-03-08T10:15:54Z</time>
      </trkpt>
      <trkpt lat="45.9199" lon="6.49933">
        <ele>1789.63</ele>
        <time>2019-03-08T10:15:55Z</time>
      </trkpt>
      <trkpt lat="45.91989" lon="6.49939">
        <ele>1790.59</ele>
        <time>2019-03-08T10:16:00Z</time>
      </trkpt>
      <trkpt lat="45.9199" lon="6.49942">
        <ele>1791.07</ele>
        <time>2019-03-08T10:16:02Z</time>
      </trkpt>
      <trkpt lat="45.91989" lon="6.49944">
        <ele>1791.55</ele>
        <time>2019-03-08T10:16:03Z</time>
      </trkpt>
      <trkpt lat="45.91986" lon="6.49959">
        <ele>1794.44</ele>
        <time>2019-03-08T10:16:16Z</time>
      </trkpt>
      <trkpt lat="45.91984" lon="6.4996">
        <ele>1794.92</ele>
        <time>2019-03-08T10:16:17Z</time>
      </trkpt>
      <trkpt lat="45.9198" lon="6.49961">
        <ele>1795.88</ele>
        <time>2019-03-08T10:16:23Z</time>
      </trkpt>
      <trkpt lat="45.91975" lon="6.49963">
        <ele>1799.24</ele>
        <time>2019-03-08T10:16:34Z</time>
      </trkpt>
      <trkpt lat="45.91972" lon="6.49965">
        <ele>1801.65</ele>
        <time>2019-03-08T10:16:46Z</time>
      </trkpt>
      <trkpt lat="45.91973" lon="6.49966">
        <ele>1802.13</ele>
        <time>2019-03-08T10:16:47Z</time>
      </trkpt>
      <trkpt lat="45.91973" lon="6.49967">
        <ele>1802.13</ele>
        <time>2019-03-08T10:16:48Z</time>
      </trkpt>
      <trkpt lat="45.91972" lon="6.4997">
        <ele>1803.57</ele>
        <time>2019-03-08T10:16:53Z</time>
      </trkpt>
      <trkpt lat="45.91972" lon="6.49976">
        <ele>1805.01</ele>
        <time>2019-03-08T10:16:59Z</time>
      </trkpt>
      <trkpt lat="45.91973" lon="6.49977">
        <ele>1805.01</ele>
        <time>2019-03-08T10:17:00Z</time>
      </trkpt>
      <trkpt lat="45.91973" lon="6.49978">
        <ele>1805.49</ele>
        <time>2019-03-08T10:17:01Z</time>
      </trkpt>
      <trkpt lat="45.91974" lon="6.49986">
        <ele>1806.94</ele>
        <time>2019-03-08T10:17:08Z</time>
      </trkpt>
      <trkpt lat="45.91975" lon="6.4999">
        <ele>1807.42</ele>
        <time>2019-03-08T10:17:11Z</time>
      </trkpt>
      <trkpt lat="45.91975" lon="6.49991">
        <ele>1807.9</ele>
        <time>2019-03-08T10:17:12Z</time>
      </trkpt>
      <trkpt lat="45.91975" lon="6.5">
        <ele>1809.82</ele>
        <time>2019-03-08T10:17:19Z</time>
      </trkpt>
      <trkpt lat="45.91974" lon="6.50003">
        <ele>1810.3</ele>
        <time>2019-03-08T10:17:21Z</time>
      </trkpt>
      <trkpt lat="45.91971" lon="6.50002">
        <ele>1810.78</ele>
        <time>2019-03-08T10:17:25Z</time>
      </trkpt>
      <trkpt lat="45.91969" lon="6.50002">
        <ele>1811.26</ele>
        <time>2019-03-08T10:17:26Z</time>
      </trkpt>
      <trkpt lat="45.91965" lon="6.50005">
        <ele>1814.63</ele>
        <time>2019-03-08T10:17:39Z</time>
      </trkpt>
      <trkpt lat="45.91964" lon="6.50004">
        <ele>1814.63</ele>
        <time>2019-03-08T10:17:40Z</time>
      </trkpt>
      <trkpt lat="45.91962" lon="6.50003">
        <ele>1817.03</ele>
        <time>2019-03-08T10:17:48Z</time>
      </trkpt>
      <trkpt lat="45.91959" lon="6.50001">
        <ele>1817.51</ele>
        <time>2019-03-08T10:17:51Z</time>
      </trkpt>
      <trkpt lat="45.91955" lon="6.49998">
        <ele>1817.51</ele>
        <time>2019-03-08T10:17:53Z</time>
      </trkpt>
      <trkpt lat="45.91953" lon="6.49994">
        <ele>1817.99</ele>
        <time>2019-03-08T10:17:56Z</time>
      </trkpt>
      <trkpt lat="45.91949" lon="6.49975">
        <ele>1821.35</ele>
        <time>2019-03-08T10:18:07Z</time>
      </trkpt>
      <trkpt lat="45.91947" lon="6.49972">
        <ele>1821.84</ele>
        <time>2019-03-08T10:18:09Z</time>
      </trkpt>
      <trkpt lat="45.91943" lon="6.49973">
        <ele>1822.8</ele>
        <time>2019-03-08T10:18:13Z</time>
      </trkpt>
      <trkpt lat="45.91942" lon="6.49973">
        <ele>1822.8</ele>
        <time>2019-03-08T10:18:14Z</time>
      </trkpt>
      <trkpt lat="45.91941" lon="6.49975">
        <ele>1823.76</ele>
        <time>2019-03-08T10:18:16Z</time>
      </trkpt>
      <trkpt lat="45.9194" lon="6.49976">
        <ele>1824.24</ele>
        <time>2019-03-08T10:18:19Z</time>
      </trkpt>
      <trkpt lat="45.91938" lon="6.49978">
        <ele>1824.72</ele>
        <time>2019-03-08T10:18:22Z</time>
      </trkpt>
      <trkpt lat="45.91937" lon="6.49979">
        <ele>1825.2</ele>
        <time>2019-03-08T10:18:24Z</time>
      </trkpt>
      <trkpt lat="45.91938" lon="6.49987">
        <ele>1828.08</ele>
        <time>2019-03-08T10:18:34Z</time>
      </trkpt>
      <trkpt lat="45.91938" lon="6.49989">
        <ele>1828.56</ele>
        <time>2019-03-08T10:18:36Z</time>
      </trkpt>
      <trkpt lat="45.91939" lon="6.49991">
        <ele>1829.05</ele>
        <time>2019-03-08T10:18:38Z</time>
      </trkpt>
      <trkpt lat="45.91938" lon="6.49993">
        <ele>1830.01</ele>
        <time>2019-03-08T10:18:41Z</time>
      </trkpt>
      <trkpt lat="45.91937" lon="6.49996">
        <ele>1831.93</ele>
        <time>2019-03-08T10:18:52Z</time>
      </trkpt>
      <trkpt lat="45.91926" lon="6.49993">
        <ele>1834.81</ele>
        <time>2019-03-08T10:19:07Z</time>
      </trkpt>
      <trkpt lat="45.91925" lon="6.49992">
        <ele>1835.29</ele>
        <time>2019-03-08T10:19:08Z</time>
      </trkpt>
      <trkpt lat="45.91917" lon="6.49986">
        <ele>1838.18</ele>
        <time>2019-03-08T10:19:21Z</time>
      </trkpt>
      <trkpt lat="45.91914" lon="6.49985">
        <ele>1839.14</ele>
        <time>2019-03-08T10:19:24Z</time>
      </trkpt>
      <trkpt lat="45.91914" lon="6.49984">
        <ele>1839.62</ele>
        <time>2019-03-08T10:19:25Z</time>
      </trkpt>
      <trkpt lat="45.91912" lon="6.49982">
        <ele>1840.58</ele>
        <time>2019-03-08T10:19:27Z</time>
      </trkpt>
      <trkpt lat="45.9191" lon="6.49981">
        <ele>1840.58</ele>
        <time>2019-03-08T10:19:28Z</time>
      </trkpt>
      <trkpt lat="45.9191" lon="6.4998">
        <ele>1840.58</ele>
        <time>2019-03-08T10:19:29Z</time>
      </trkpt>
      <trkpt lat="45.91902" lon="6.49973">
        <ele>1843.95</ele>
        <time>2019-03-08T10:19:41Z</time>
      </trkpt>
      <trkpt lat="45.919" lon="6.49971">
        <ele>1844.91</ele>
        <time>2019-03-08T10:19:44Z</time>
      </trkpt>
      <trkpt lat="45.91899" lon="6.49969">
        <ele>1846.35</ele>
        <time>2019-03-08T10:19:49Z</time>
      </trkpt>
      <trkpt lat="45.91899" lon="6.49967">
        <ele>1846.83</ele>
        <time>2019-03-08T10:19:52Z</time>
      </trkpt>
      <trkpt lat="45.91899" lon="6.49965">
        <ele>1847.79</ele>
        <time>2019-03-08T10:19:55Z</time>
      </trkpt>
      <trkpt lat="45.91899" lon="6.49961">
        <ele>1849.23</ele>
        <time>2019-03-08T10:20:01Z</time>
      </trkpt>
      <trkpt lat="45.91901" lon="6.4996">
        <ele>1849.71</ele>
        <time>2019-03-08T10:20:02Z</time>
      </trkpt>
      <trkpt lat="45.91899" lon="6.49959">
        <ele>1850.68</ele>
        <time>2019-03-08T10:20:06Z</time>
      </trkpt>
      <trkpt lat="45.91898" lon="6.49959">
        <ele>1850.68</ele>
        <time>2019-03-08T10:20:07Z</time>
      </trkpt>
      <trkpt lat="45.91897" lon="6.49963">
        <ele>1851.64</ele>
        <time>2019-03-08T10:20:11Z</time>
      </trkpt>
      <trkpt lat="45.91895" lon="6.49967">
        <ele>1852.12</ele>
        <time>2019-03-08T10:20:14Z</time>
      </trkpt>
      <trkpt lat="45.91891" lon="6.49972">
        <ele>1853.08</ele>
        <time>2019-03-08T10:20:19Z</time>
      </trkpt>
      <trkpt lat="45.91884" lon="6.49977">
        <ele>1854.52</ele>
        <time>2019-03-08T10:20:30Z</time>
      </trkpt>
      <trkpt lat="45.91883" lon="6.49976">
        <ele>1855</ele>
        <time>2019-03-08T10:20:31Z</time>
      </trkpt>
      <trkpt lat="45.91884" lon="6.49974">
        <ele>1855</ele>
        <time>2019-03-08T10:20:33Z</time>
      </trkpt>
      <trkpt lat="45.91883" lon="6.49973">
        <ele>1855</ele>
        <time>2019-03-08T10:20:34Z</time>
      </trkpt>
      <trkpt lat="45.91881" lon="6.49969">
        <ele>1855.96</ele>
        <time>2019-03-08T10:20:37Z</time>
      </trkpt>
      <trkpt lat="45.91881" lon="6.49966">
        <ele>1856.44</ele>
        <time>2019-03-08T10:20:40Z</time>
      </trkpt>
      <trkpt lat="45.91879" lon="6.49966">
        <ele>1856.44</ele>
        <time>2019-03-08T10:20:41Z</time>
      </trkpt>
      <trkpt lat="45.91879" lon="6.49965">
        <ele>1856.92</ele>
        <time>2019-03-08T10:20:42Z</time>
      </trkpt>
      <trkpt lat="45.91893" lon="6.49963">
        <ele>1856.92</ele>
        <time>2019-03-08T10:20:43Z</time>
      </trkpt>
      <trkpt lat="45.91917" lon="6.49956">
        <ele>1857.4</ele>
        <time>2019-03-08T10:20:48Z</time>
      </trkpt>
      <trkpt lat="45.91911" lon="6.49955">
        <ele>1857.4</ele>
        <time>2019-03-08T10:20:49Z</time>
      </trkpt>
      <trkpt lat="45.91919" lon="6.49954">
        <ele>1857.89</ele>
        <time>2019-03-08T10:20:50Z</time>
      </trkpt>
      <trkpt lat="45.91923" lon="6.49953">
        <ele>1857.89</ele>
        <time>2019-03-08T10:20:51Z</time>
      </trkpt>
      <trkpt lat="45.91949" lon="6.49948">
        <ele>1858.85</ele>
        <time>2019-03-08T10:20:56Z</time>
      </trkpt>
      <trkpt lat="45.9195" lon="6.49946">
        <ele>1859.33</ele>
        <time>2019-03-08T10:20:57Z</time>
      </trkpt>
      <trkpt lat="45.91948" lon="6.49946">
        <ele>1859.33</ele>
        <time>2019-03-08T10:20:58Z</time>
      </trkpt>
      <trkpt lat="45.91955" lon="6.49947">
        <ele>1859.81</ele>
        <time>2019-03-08T10:20:59Z</time>
      </trkpt>
      <trkpt lat="45.91978" lon="6.4995">
        <ele>1860.77</ele>
        <time>2019-03-08T10:21:07Z</time>
      </trkpt>
      <trkpt lat="45.91969" lon="6.49958">
        <ele>1862.21</ele>
        <time>2019-03-08T10:21:14Z</time>
      </trkpt>
      <trkpt lat="45.91969" lon="6.49961">
        <ele>1862.69</ele>
        <time>2019-03-08T10:21:16Z</time>
      </trkpt>
      <trkpt lat="45.91968" lon="6.49966">
        <ele>1863.65</ele>
        <time>2019-03-08T10:21:19Z</time>
      </trkpt>
      <trkpt lat="45.91956" lon="6.49974">
        <ele>1865.58</ele>
        <time>2019-03-08T10:21:26Z</time>
      </trkpt>
      <trkpt lat="45.91958" lon="6.49977">
        <ele>1865.58</ele>
        <time>2019-03-08T10:21:28Z</time>
      </trkpt>
      <trkpt lat="45.9196" lon="6.49979">
        <ele>1866.06</ele>
        <time>2019-03-08T10:21:29Z</time>
      </trkpt>
      <trkpt lat="45.91977" lon="6.49976">
        <ele>1869.42</ele>
        <time>2019-03-08T10:21:43Z</time>
      </trkpt>
      <trkpt lat="45.91977" lon="6.49974">
        <ele>1869.42</ele>
        <time>2019-03-08T10:21:44Z</time>
      </trkpt>
      <trkpt lat="45.91976" lon="6.49972">
        <ele>1869.9</ele>
        <time>2019-03-08T10:21:45Z</time>
      </trkpt>
      <trkpt lat="45.91962" lon="6.49965">
        <ele>1871.82</ele>
        <time>2019-03-08T10:21:54Z</time>
      </trkpt>
      <trkpt lat="45.91964" lon="6.49958">
        <ele>1873.75</ele>
        <time>2019-03-08T10:22:02Z</time>
      </trkpt>
      <trkpt lat="45.91972" lon="6.49954">
        <ele>1874.71</ele>
        <time>2019-03-08T10:22:06Z</time>
      </trkpt>
      <trkpt lat="45.91971" lon="6.49953">
        <ele>1875.19</ele>
        <time>2019-03-08T10:22:07Z</time>
      </trkpt>
      <trkpt lat="45.91975" lon="6.49943">
        <ele>1877.59</ele>
        <time>2019-03-08T10:22:18Z</time>
      </trkpt>
      <trkpt lat="45.91964" lon="6.49939">
        <ele>1879.03</ele>
        <time>2019-03-08T10:22:22Z</time>
      </trkpt>
      <trkpt lat="45.91963" lon="6.4994">
        <ele>1879.03</ele>
        <time>2019-03-08T10:22:23Z</time>
      </trkpt>
      <trkpt lat="45.91964" lon="6.49936">
        <ele>1882.4</ele>
        <time>2019-03-08T10:22:35Z</time>
      </trkpt>
      <trkpt lat="45.91968" lon="6.49935">
        <ele>1883.36</ele>
        <time>2019-03-08T10:22:40Z</time>
      </trkpt>
      <trkpt lat="45.91966" lon="6.49937">
        <ele>1884.32</ele>
        <time>2019-03-08T10:22:43Z</time>
      </trkpt>
      <trkpt lat="45.91975" lon="6.49937">
        <ele>1885.28</ele>
        <time>2019-03-08T10:22:46Z</time>
      </trkpt>
      <trkpt lat="45.91979" lon="6.49936">
        <ele>1885.76</ele>
        <time>2019-03-08T10:22:49Z</time>
      </trkpt>
      <trkpt lat="45.91982" lon="6.49938">
        <ele>1886.24</ele>
        <time>2019-03-08T10:22:52Z</time>
      </trkpt>
      <trkpt lat="45.91986" lon="6.49938">
        <ele>1886.72</ele>
        <time>2019-03-08T10:22:54Z</time>
      </trkpt>
      <trkpt lat="45.91987" lon="6.49939">
        <ele>1887.21</ele>
        <time>2019-03-08T10:22:55Z</time>
      </trkpt>
      <trkpt lat="45.91981" lon="6.49938">
        <ele>1887.69</ele>
        <time>2019-03-08T10:22:58Z</time>
      </trkpt>
      <trkpt lat="45.91966" lon="6.49938">
        <ele>1888.65</ele>
        <time>2019-03-08T10:23:02Z</time>
      </trkpt>
      <trkpt lat="45.91964" lon="6.49942">
        <ele>1890.09</ele>
        <time>2019-03-08T10:23:08Z</time>
      </trkpt>
      <trkpt lat="45.91966" lon="6.49943">
        <ele>1890.57</ele>
        <time>2019-03-08T10:23:10Z</time>
      </trkpt>
      <trkpt lat="45.91958" lon="6.4995">
        <ele>1892.01</ele>
        <time>2019-03-08T10:23:17Z</time>
      </trkpt>
      <trkpt lat="45.91959" lon="6.49957">
        <ele>1894.9</ele>
        <time>2019-03-08T10:23:31Z</time>
      </trkpt>
      <trkpt lat="45.9196" lon="6.49957">
        <ele>1895.38</ele>
        <time>2019-03-08T10:23:32Z</time>
      </trkpt>
      <trkpt lat="45.91938" lon="6.4996">
        <ele>1898.26</ele>
        <time>2019-03-08T10:23:47Z</time>
      </trkpt>
      <trkpt lat="45.91919" lon="6.49966">
        <ele>1899.7</ele>
        <time>2019-03-08T10:23:53Z</time>
      </trkpt>
      <trkpt lat="45.91917" lon="6.49967">
        <ele>1899.7</ele>
        <time>2019-03-08T10:23:54Z</time>
      </trkpt>
      <trkpt lat="45.91915" lon="6.49968">
        <ele>1900.18</ele>
        <time>2019-03-08T10:23:55Z</time>
      </trkpt>
      <trkpt lat="45.91912" lon="6.49969">
        <ele>1900.18</ele>
        <time>2019-03-08T10:23:56Z</time>
      </trkpt>
      <trkpt lat="45.91917" lon="6.49976">
        <ele>1903.07</ele>
        <time>2019-03-08T10:24:12Z</time>
      </trkpt>
      <trkpt lat="45.9193" lon="6.49976">
        <ele>1904.99</ele>
        <time>2019-03-08T10:24:17Z</time>
      </trkpt>
      <trkpt lat="45.91925" lon="6.49977">
        <ele>1904.99</ele>
        <time>2019-03-08T10:24:18Z</time>
      </trkpt>
      <trkpt lat="45.91921" lon="6.49978">
        <ele>1905.47</ele>
        <time>2019-03-08T10:24:19Z</time>
      </trkpt>
      <trkpt lat="45.91921" lon="6.49979">
        <ele>1905.95</ele>
        <time>2019-03-08T10:24:21Z</time>
      </trkpt>
      <trkpt lat="45.91924" lon="6.49982">
        <ele>1907.39</ele>
        <time>2019-03-08T10:24:28Z</time>
      </trkpt>
      <trkpt lat="45.91943" lon="6.49986">
        <ele>1910.28</ele>
        <time>2019-03-08T10:24:40Z</time>
      </trkpt>
      <trkpt lat="45.91935" lon="6.49987">
        <ele>1910.76</ele>
        <time>2019-03-08T10:24:43Z</time>
      </trkpt>
      <trkpt lat="45.91928" lon="6.49988">
        <ele>1910.76</ele>
        <time>2019-03-08T10:24:45Z</time>
      </trkpt>
      <trkpt lat="45.91921" lon="6.49987">
        <ele>1911.24</ele>
        <time>2019-03-08T10:24:46Z</time>
      </trkpt>
      <trkpt lat="45.91891" lon="6.49989">
        <ele>1913.16</ele>
        <time>2019-03-08T10:24:59Z</time>
      </trkpt>
      <trkpt lat="45.91881" lon="6.49989">
        <ele>1914.12</ele>
        <time>2019-03-08T10:25:02Z</time>
      </trkpt>
      <trkpt lat="45.91879" lon="6.49989">
        <ele>1914.12</ele>
        <time>2019-03-08T10:25:03Z</time>
      </trkpt>
      <trkpt lat="45.91888" lon="6.4999">
        <ele>1915.56</ele>
        <time>2019-03-08T10:25:08Z</time>
      </trkpt>
      <trkpt lat="45.91882" lon="6.4999">
        <ele>1916.53</ele>
        <time>2019-03-08T10:25:11Z</time>
      </trkpt>
      <trkpt lat="45.91881" lon="6.49988">
        <ele>1917.01</ele>
        <time>2019-03-08T10:25:12Z</time>
      </trkpt>
      <trkpt lat="45.91895" lon="6.49987">
        <ele>1918.45</ele>
        <time>2019-03-08T10:25:19Z</time>
      </trkpt>
      <trkpt lat="45.9193" lon="6.49961">
        <ele>1920.37</ele>
        <time>2019-03-08T10:25:28Z</time>
      </trkpt>
      <trkpt lat="45.91925" lon="6.49948">
        <ele>1920.37</ele>
        <time>2019-03-08T10:25:29Z</time>
      </trkpt>
      <trkpt lat="45.91931" lon="6.49944">
        <ele>1920.85</ele>
        <time>2019-03-08T10:25:30Z</time>
      </trkpt>
      <trkpt lat="45.9194" lon="6.49941">
        <ele>1921.33</ele>
        <time>2019-03-08T10:25:32Z</time>
      </trkpt>
      <trkpt lat="45.91948" lon="6.49938">
        <ele>1921.81</ele>
        <time>2019-03-08T10:25:33Z</time>
      </trkpt>
      <trkpt lat="45.91953" lon="6.49914">
        <ele>1921.81</ele>
        <time>2019-03-08T10:25:34Z</time>
      </trkpt>
      <trkpt lat="45.91922" lon="6.49923">
        <ele>1925.18</ele>
        <time>2019-03-08T10:25:48Z</time>
      </trkpt>
      <trkpt lat="45.91925" lon="6.49929">
        <ele>1926.14</ele>
        <time>2019-03-08T10:25:51Z</time>
      </trkpt>
      <trkpt lat="45.91912" lon="6.4994">
        <ele>1929.02</ele>
        <time>2019-03-08T10:26:02Z</time>
      </trkpt>
      <trkpt lat="45.91905" lon="6.4994">
        <ele>1929.02</ele>
        <time>2019-03-08T10:26:03Z</time>
      </trkpt>
      <trkpt lat="45.91902" lon="6.49941">
        <ele>1929.5</ele>
        <time>2019-03-08T10:26:04Z</time>
      </trkpt>
      <trkpt lat="45.91901" lon="6.49941">
        <ele>1929.98</ele>
        <time>2019-03-08T10:26:05Z</time>
      </trkpt>
      <trkpt lat="45.91912" lon="6.49921">
        <ele>1932.87</ele>
        <time>2019-03-08T10:26:19Z</time>
      </trkpt>
      <trkpt lat="45.9191" lon="6.49923">
        <ele>1933.83</ele>
        <time>2019-03-08T10:26:21Z</time>
      </trkpt>
      <trkpt lat="45.91899" lon="6.49922">
        <ele>1934.79</ele>
        <time>2019-03-08T10:26:27Z</time>
      </trkpt>
      <trkpt lat="45.91894" lon="6.49917">
        <ele>1935.27</ele>
        <time>2019-03-08T10:26:29Z</time>
      </trkpt>
      <trkpt lat="45.91892" lon="6.49915">
        <ele>1935.75</ele>
        <time>2019-03-08T10:26:30Z</time>
      </trkpt>
      <trkpt lat="45.91865" lon="6.49927">
        <ele>1936.23</ele>
        <time>2019-03-08T10:26:32Z</time>
      </trkpt>
      <trkpt lat="45.91855" lon="6.49932">
        <ele>1936.23</ele>
        <time>2019-03-08T10:26:33Z</time>
      </trkpt>
      <trkpt lat="45.91854" lon="6.49934">
        <ele>1936.23</ele>
        <time>2019-03-08T10:26:34Z</time>
      </trkpt>
      <trkpt lat="45.9185" lon="6.4994">
        <ele>1937.19</ele>
        <time>2019-03-08T10:26:36Z</time>
      </trkpt>
      <trkpt lat="45.91856" lon="6.49942">
        <ele>1937.67</ele>
        <time>2019-03-08T10:26:38Z</time>
      </trkpt>
      <trkpt lat="45.91929" lon="6.49939">
        <ele>1941.04</ele>
        <time>2019-03-08T10:26:51Z</time>
      </trkpt>
      <trkpt lat="45.91938" lon="6.49895">
        <ele>1943.92</ele>
        <time>2019-03-08T10:27:02Z</time>
      </trkpt>
      <trkpt lat="45.91938" lon="6.49895">
        <ele>1944.4</ele>
        <time>2019-03-08T10:27:03Z</time>
      </trkpt>
      <trkpt lat="45.91936" lon="6.49895">
        <ele>1944.4</ele>
        <time>2019-03-08T10:27:04Z</time>
      </trkpt>
      <trkpt lat="45.91857" lon="6.4992">
        <ele>1947.77</ele>
        <time>2019-03-08T10:27:17Z</time>
      </trkpt>
      <trkpt lat="45.91876" lon="6.49927">
        <ele>1949.69</ele>
        <time>2019-03-08T10:27:25Z</time>
      </trkpt>
      <trkpt lat="45.91875" lon="6.49927">
        <ele>1950.17</ele>
        <time>2019-03-08T10:27:26Z</time>
      </trkpt>
      <trkpt lat="45.91865" lon="6.49932">
        <ele>1951.61</ele>
        <time>2019-03-08T10:27:32Z</time>
      </trkpt>
      <trkpt lat="45.91864" lon="6.49932">
        <ele>1951.61</ele>
        <time>2019-03-08T10:27:33Z</time>
      </trkpt>
      <trkpt lat="45.91859" lon="6.4993">
        <ele>1952.09</ele>
        <time>2019-03-08T10:27:34Z</time>
      </trkpt>
      <trkpt lat="45.91858" lon="6.49931">
        <ele>1952.57</ele>
        <time>2019-03-08T10:27:35Z</time>
      </trkpt>
      <trkpt lat="45.91857" lon="6.4993">
        <ele>1952.57</ele>
        <time>2019-03-08T10:27:36Z</time>
      </trkpt>
      <trkpt lat="45.91847" lon="6.4993">
        <ele>1954.02</ele>
        <time>2019-03-08T10:27:40Z</time>
      </trkpt>
      <trkpt lat="45.91845" lon="6.49931">
        <ele>1954.02</ele>
        <time>2019-03-08T10:27:41Z</time>
      </trkpt>
      <trkpt lat="45.91867" lon="6.4993">
        <ele>1955.46</ele>
        <time>2019-03-08T10:27:47Z</time>
      </trkpt>
      <trkpt lat="45.91893" lon="6.49938">
        <ele>1958.82</ele>
        <time>2019-03-08T10:27:59Z</time>
      </trkpt>
      <trkpt lat="45.91892" lon="6.49938">
        <ele>1958.82</ele>
        <time>2019-03-08T10:28:00Z</time>
      </trkpt>
      <trkpt lat="45.91882" lon="6.49932">
        <ele>1959.78</ele>
        <time>2019-03-08T10:28:05Z</time>
      </trkpt>
      <trkpt lat="45.91873" lon="6.49936">
        <ele>1960.75</ele>
        <time>2019-03-08T10:28:11Z</time>
      </trkpt>
      <trkpt lat="45.91868" lon="6.49938">
        <ele>1960.75</ele>
        <time>2019-03-08T10:28:12Z</time>
      </trkpt>
      <trkpt lat="45.91874" lon="6.49937">
        <ele>1961.23</ele>
        <time>2019-03-08T10:28:13Z</time>
      </trkpt>
      <trkpt lat="45.91846" lon="6.4996">
        <ele>1963.15</ele>
        <time>2019-03-08T10:28:29Z</time>
      </trkpt>
      <trkpt lat="45.91853" lon="6.49959">
        <ele>1964.59</ele>
        <time>2019-03-08T10:28:37Z</time>
      </trkpt>
      <trkpt lat="45.91856" lon="6.49959">
        <ele>1965.07</ele>
        <time>2019-03-08T10:28:38Z</time>
      </trkpt>
      <trkpt lat="45.91854" lon="6.49958">
        <ele>1966.03</ele>
        <time>2019-03-08T10:28:43Z</time>
      </trkpt>
      <trkpt lat="45.91877" lon="6.49956">
        <ele>1966.99</ele>
        <time>2019-03-08T10:28:51Z</time>
      </trkpt>
      <trkpt lat="45.91878" lon="6.49958">
        <ele>1967.48</ele>
        <time>2019-03-08T10:28:52Z</time>
      </trkpt>
      <trkpt lat="45.91883" lon="6.49959">
        <ele>1967.96</ele>
        <time>2019-03-08T10:28:54Z</time>
      </trkpt>
      <trkpt lat="45.9189" lon="6.49959">
        <ele>1968.44</ele>
        <time>2019-03-08T10:28:56Z</time>
      </trkpt>
      <trkpt lat="45.91892" lon="6.49959">
        <ele>1968.44</ele>
        <time>2019-03-08T10:28:57Z</time>
      </trkpt>
      <trkpt lat="45.91884" lon="6.49963">
        <ele>1969.4</ele>
        <time>2019-03-08T10:29:02Z</time>
      </trkpt>
      <trkpt lat="45.91878" lon="6.49967">
        <ele>1969.4</ele>
        <time>2019-03-08T10:29:04Z</time>
      </trkpt>
      <trkpt lat="45.91867" lon="6.4997">
        <ele>1969.4</ele>
        <time>2019-03-08T10:29:08Z</time>
      </trkpt>
      <trkpt lat="45.91864" lon="6.49971">
        <ele>1969.88</ele>
        <time>2019-03-08T10:29:09Z</time>
      </trkpt>
      <trkpt lat="45.91859" lon="6.4997">
        <ele>1971.8</ele>
        <time>2019-03-08T10:29:19Z</time>
      </trkpt>
      <trkpt lat="45.91854" lon="6.49972">
        <ele>1972.28</ele>
        <time>2019-03-08T10:29:21Z</time>
      </trkpt>
      <trkpt lat="45.91852" lon="6.49973">
        <ele>1972.76</ele>
        <time>2019-03-08T10:29:22Z</time>
      </trkpt>
      <trkpt lat="45.91847" lon="6.49976">
        <ele>1972.76</ele>
        <time>2019-03-08T10:29:24Z</time>
      </trkpt>
      <trkpt lat="45.91846" lon="6.49977">
        <ele>1973.24</ele>
        <time>2019-03-08T10:29:25Z</time>
      </trkpt>
      <trkpt lat="45.91845" lon="6.49979">
        <ele>1974.2</ele>
        <time>2019-03-08T10:29:27Z</time>
      </trkpt>
      <trkpt lat="45.91826" lon="6.49994">
        <ele>1976.61</ele>
        <time>2019-03-08T10:29:39Z</time>
      </trkpt>
      <trkpt lat="45.91824" lon="6.49997">
        <ele>1977.09</ele>
        <time>2019-03-08T10:29:41Z</time>
      </trkpt>
      <trkpt lat="45.91817" lon="6.50001">
        <ele>1978.05</ele>
        <time>2019-03-08T10:29:44Z</time>
      </trkpt>
      <trkpt lat="45.91815" lon="6.50003">
        <ele>1979.01</ele>
        <time>2019-03-08T10:29:47Z</time>
      </trkpt>
      <trkpt lat="45.9182" lon="6.50004">
        <ele>1979.97</ele>
        <time>2019-03-08T10:29:52Z</time>
      </trkpt>
      <trkpt lat="45.9181" lon="6.50011">
        <ele>1980.93</ele>
        <time>2019-03-08T10:29:57Z</time>
      </trkpt>
      <trkpt lat="45.91808" lon="6.50013">
        <ele>1981.41</ele>
        <time>2019-03-08T10:29:58Z</time>
      </trkpt>
      <trkpt lat="45.91808" lon="6.50015">
        <ele>1981.9</ele>
        <time>2019-03-08T10:30:00Z</time>
      </trkpt>
      <trkpt lat="45.91803" lon="6.50021">
        <ele>1983.82</ele>
        <time>2019-03-08T10:30:07Z</time>
      </trkpt>
      <trkpt lat="45.91806" lon="6.50021">
        <ele>1983.82</ele>
        <time>2019-03-08T10:30:08Z</time>
      </trkpt>
      <trkpt lat="45.91793" lon="6.50026">
        <ele>1984.78</ele>
        <time>2019-03-08T10:30:14Z</time>
      </trkpt>
      <trkpt lat="45.9179" lon="6.50027">
        <ele>1984.78</ele>
        <time>2019-03-08T10:30:15Z</time>
      </trkpt>
      <trkpt lat="45.91793" lon="6.50028">
        <ele>1984.78</ele>
        <time>2019-03-08T10:30:16Z</time>
      </trkpt>
      <trkpt lat="45.91795" lon="6.50028">
        <ele>1985.26</ele>
        <time>2019-03-08T10:30:17Z</time>
      </trkpt>
      <trkpt lat="45.91816" lon="6.50031">
        <ele>1987.18</ele>
        <time>2019-03-08T10:30:25Z</time>
      </trkpt>
      <trkpt lat="45.91799" lon="6.50033">
        <ele>1989.1</ele>
        <time>2019-03-08T10:30:34Z</time>
      </trkpt>
      <trkpt lat="45.91803" lon="6.50034">
        <ele>1989.59</ele>
        <time>2019-03-08T10:30:37Z</time>
      </trkpt>
      <trkpt lat="45.918" lon="6.50035">
        <ele>1990.07</ele>
        <time>2019-03-08T10:30:40Z</time>
      </trkpt>
      <trkpt lat="45.91787" lon="6.50036">
        <ele>1991.51</ele>
        <time>2019-03-08T10:30:44Z</time>
      </trkpt>
      <trkpt lat="45.918" lon="6.50036">
        <ele>1993.91</ele>
        <time>2019-03-08T10:30:53Z</time>
      </trkpt>
      <trkpt lat="45.91798" lon="6.50038">
        <ele>1993.91</ele>
        <time>2019-03-08T10:30:54Z</time>
      </trkpt>
      <trkpt lat="45.91809" lon="6.50039">
        <ele>1995.83</ele>
        <time>2019-03-08T10:31:00Z</time>
      </trkpt>
      <trkpt lat="45.91807" lon="6.5004">
        <ele>1995.83</ele>
        <time>2019-03-08T10:31:01Z</time>
      </trkpt>
      <trkpt lat="45.91803" lon="6.50043">
        <ele>1995.83</ele>
        <time>2019-03-08T10:31:03Z</time>
      </trkpt>
      <trkpt lat="45.91797" lon="6.50045">
        <ele>1996.8</ele>
        <time>2019-03-08T10:31:06Z</time>
      </trkpt>
      <trkpt lat="45.91792" lon="6.50047">
        <ele>1996.8</ele>
        <time>2019-03-08T10:31:08Z</time>
      </trkpt>
      <trkpt lat="45.91793" lon="6.50047">
        <ele>1997.28</ele>
        <time>2019-03-08T10:31:09Z</time>
      </trkpt>
      <trkpt lat="45.91791" lon="6.50049">
        <ele>1997.76</ele>
        <time>2019-03-08T10:31:11Z</time>
      </trkpt>
      <trkpt lat="45.91783" lon="6.5005">
        <ele>1998.24</ele>
        <time>2019-03-08T10:31:16Z</time>
      </trkpt>
      <trkpt lat="45.91771" lon="6.50052">
        <ele>1998.72</ele>
        <time>2019-03-08T10:31:19Z</time>
      </trkpt>
      <trkpt lat="45.91767" lon="6.50052">
        <ele>1999.2</ele>
        <time>2019-03-08T10:31:20Z</time>
      </trkpt>
      <trkpt lat="45.91762" lon="6.50054">
        <ele>1999.2</ele>
        <time>2019-03-08T10:31:22Z</time>
      </trkpt>
      <trkpt lat="45.91751" lon="6.50057">
        <ele>2000.16</ele>
        <time>2019-03-08T10:31:26Z</time>
      </trkpt>
      <trkpt lat="45.91736" lon="6.50061">
        <ele>2001.6</ele>
        <time>2019-03-08T10:31:32Z</time>
      </trkpt>
      <trkpt lat="45.91708" lon="6.50065">
        <ele>2004.97</ele>
        <time>2019-03-08T10:31:44Z</time>
      </trkpt>
      <trkpt lat="45.917" lon="6.5007">
        <ele>2005.45</ele>
        <time>2019-03-08T10:31:48Z</time>
      </trkpt>
      <trkpt lat="45.91695" lon="6.50074">
        <ele>2006.89</ele>
        <time>2019-03-08T10:31:51Z</time>
      </trkpt>
      <trkpt lat="45.91692" lon="6.50078">
        <ele>2007.37</ele>
        <time>2019-03-08T10:31:54Z</time>
      </trkpt>
      <trkpt lat="45.9169" lon="6.5008">
        <ele>2008.33</ele>
        <time>2019-03-08T10:31:56Z</time>
      </trkpt>
      <trkpt lat="45.91684" lon="6.50085">
        <ele>2009.77</ele>
        <time>2019-03-08T10:32:01Z</time>
      </trkpt>
      <trkpt lat="45.91678" lon="6.5009">
        <ele>2011.22</ele>
        <time>2019-03-08T10:32:06Z</time>
      </trkpt>
      <trkpt lat="45.91678" lon="6.50092">
        <ele>2011.22</ele>
        <time>2019-03-08T10:32:07Z</time>
      </trkpt>
      <trkpt lat="45.91671" lon="6.50098">
        <ele>2012.18</ele>
        <time>2019-03-08T10:32:11Z</time>
      </trkpt>
      <trkpt lat="45.91663" lon="6.50101">
        <ele>2012.66</ele>
        <time>2019-03-08T10:32:15Z</time>
      </trkpt>
      <trkpt lat="45.91646" lon="6.50105">
        <ele>2014.58</ele>
        <time>2019-03-08T10:32:24Z</time>
      </trkpt>
      <trkpt lat="45.91635" lon="6.50106">
        <ele>2016.02</ele>
        <time>2019-03-08T10:32:30Z</time>
      </trkpt>
      <trkpt lat="45.91635" lon="6.50106">
        <ele>2016.02</ele>
        <time>2019-03-08T10:32:31Z</time>
      </trkpt>
      <trkpt lat="45.91632" lon="6.50105">
        <ele>2016.5</ele>
        <time>2019-03-08T10:32:32Z</time>
      </trkpt>
      <trkpt lat="45.91631" lon="6.50105">
        <ele>2016.98</ele>
        <time>2019-03-08T10:32:33Z</time>
      </trkpt>
      <trkpt lat="45.91624" lon="6.50105">
        <ele>2017.46</ele>
        <time>2019-03-08T10:32:36Z</time>
      </trkpt>
      <trkpt lat="45.91618" lon="6.50105">
        <ele>2018.43</ele>
        <time>2019-03-08T10:32:39Z</time>
      </trkpt>
      <trkpt lat="45.91609" lon="6.50096">
        <ele>2020.35</ele>
        <time>2019-03-08T10:32:46Z</time>
      </trkpt>
      <trkpt lat="45.91608" lon="6.50093">
        <ele>2020.83</ele>
        <time>2019-03-08T10:32:49Z</time>
      </trkpt>
      <trkpt lat="45.91595" lon="6.50087">
        <ele>2023.71</ele>
        <time>2019-03-08T10:33:04Z</time>
      </trkpt>
      <trkpt lat="45.91587" lon="6.50086">
        <ele>2025.15</ele>
        <time>2019-03-08T10:33:09Z</time>
      </trkpt>
      <trkpt lat="45.91583" lon="6.50086">
        <ele>2026.6</ele>
        <time>2019-03-08T10:33:17Z</time>
      </trkpt>
      <trkpt lat="45.9158" lon="6.50095">
        <ele>2029</ele>
        <time>2019-03-08T10:33:28Z</time>
      </trkpt>
      <trkpt lat="45.9158" lon="6.50095">
        <ele>2029</ele>
        <time>2019-03-08T10:33:29Z</time>
      </trkpt>
      <trkpt lat="45.9158" lon="6.50097">
        <ele>2029.48</ele>
        <time>2019-03-08T10:33:31Z</time>
      </trkpt>
      <trkpt lat="45.91581" lon="6.50101">
        <ele>2030.44</ele>
        <time>2019-03-08T10:33:34Z</time>
      </trkpt>
      <trkpt lat="45.9158" lon="6.50112">
        <ele>2032.84</ele>
        <time>2019-03-08T10:33:44Z</time>
      </trkpt>
      <trkpt lat="45.91576" lon="6.5012">
        <ele>2034.77</ele>
        <time>2019-03-08T10:33:53Z</time>
      </trkpt>
      <trkpt lat="45.91575" lon="6.50122">
        <ele>2035.25</ele>
        <time>2019-03-08T10:33:54Z</time>
      </trkpt>
      <trkpt lat="45.91573" lon="6.50129">
        <ele>2036.21</ele>
        <time>2019-03-08T10:33:58Z</time>
      </trkpt>
      <trkpt lat="45.91573" lon="6.50132">
        <ele>2036.69</ele>
        <time>2019-03-08T10:34:00Z</time>
      </trkpt>
      <trkpt lat="45.91572" lon="6.50135">
        <ele>2037.17</ele>
        <time>2019-03-08T10:34:02Z</time>
      </trkpt>
      <trkpt lat="45.91572" lon="6.50138">
        <ele>2037.17</ele>
        <time>2019-03-08T10:34:04Z</time>
      </trkpt>
      <trkpt lat="45.91571" lon="6.50146">
        <ele>2039.09</ele>
        <time>2019-03-08T10:34:10Z</time>
      </trkpt>
      <trkpt lat="45.9157" lon="6.50147">
        <ele>2039.09</ele>
        <time>2019-03-08T10:34:11Z</time>
      </trkpt>
      <trkpt lat="45.91569" lon="6.50158">
        <ele>2041.5</ele>
        <time>2019-03-08T10:34:20Z</time>
      </trkpt>
      <trkpt lat="45.91568" lon="6.50162">
        <ele>2042.46</ele>
        <time>2019-03-08T10:34:24Z</time>
      </trkpt>
      <trkpt lat="45.91567" lon="6.50164">
        <ele>2042.94</ele>
        <time>2019-03-08T10:34:26Z</time>
      </trkpt>
      <trkpt lat="45.91568" lon="6.50165">
        <ele>2043.42</ele>
        <time>2019-03-08T10:34:27Z</time>
      </trkpt>
      <trkpt lat="45.91568" lon="6.50168">
        <ele>2043.9</ele>
        <time>2019-03-08T10:34:30Z</time>
      </trkpt>
      <trkpt lat="45.91567" lon="6.50171">
        <ele>2044.38</ele>
        <time>2019-03-08T10:34:32Z</time>
      </trkpt>
      <trkpt lat="45.91564" lon="6.50175">
        <ele>2044.86</ele>
        <time>2019-03-08T10:34:35Z</time>
      </trkpt>
      <trkpt lat="45.9156" lon="6.50186">
        <ele>2047.75</ele>
        <time>2019-03-08T10:34:47Z</time>
      </trkpt>
      <trkpt lat="45.91558" lon="6.50188">
        <ele>2048.23</ele>
        <time>2019-03-08T10:34:48Z</time>
      </trkpt>
      <trkpt lat="45.91558" lon="6.50189">
        <ele>2048.23</ele>
        <time>2019-03-08T10:34:49Z</time>
      </trkpt>
      <trkpt lat="45.91558" lon="6.5019">
        <ele>2048.23</ele>
        <time>2019-03-08T10:34:50Z</time>
      </trkpt>
      <trkpt lat="45.91553" lon="6.50195">
        <ele>2051.11</ele>
        <time>2019-03-08T10:35:00Z</time>
      </trkpt>
      <trkpt lat="45.91555" lon="6.50197">
        <ele>2051.59</ele>
        <time>2019-03-08T10:35:02Z</time>
      </trkpt>
      <trkpt lat="45.91557" lon="6.50199">
        <ele>2052.55</ele>
        <time>2019-03-08T10:35:03Z</time>
      </trkpt>
      <trkpt lat="45.91556" lon="6.502">
        <ele>2052.55</ele>
        <time>2019-03-08T10:35:05Z</time>
      </trkpt>
      <trkpt lat="45.91555" lon="6.50205">
        <ele>2053.51</ele>
        <time>2019-03-08T10:35:08Z</time>
      </trkpt>
      <trkpt lat="45.91548" lon="6.50212">
        <ele>2054.47</ele>
        <time>2019-03-08T10:35:14Z</time>
      </trkpt>
      <trkpt lat="45.91548" lon="6.50213">
        <ele>2054.96</ele>
        <time>2019-03-08T10:35:15Z</time>
      </trkpt>
      <trkpt lat="45.91547" lon="6.50215">
        <ele>2054.96</ele>
        <time>2019-03-08T10:35:16Z</time>
      </trkpt>
      <trkpt lat="45.91546" lon="6.50216">
        <ele>2055.44</ele>
        <time>2019-03-08T10:35:17Z</time>
      </trkpt>
      <trkpt lat="45.91546" lon="6.50217">
        <ele>2055.44</ele>
        <time>2019-03-08T10:35:18Z</time>
      </trkpt>
      <trkpt lat="45.9154" lon="6.50226">
        <ele>2056.4</ele>
        <time>2019-03-08T10:35:24Z</time>
      </trkpt>
      <trkpt lat="45.91539" lon="6.50227">
        <ele>2056.4</ele>
        <time>2019-03-08T10:35:25Z</time>
      </trkpt>
      <trkpt lat="45.91539" lon="6.50228">
        <ele>2056.88</ele>
        <time>2019-03-08T10:35:26Z</time>
      </trkpt>
      <trkpt lat="45.91539" lon="6.50229">
        <ele>2057.36</ele>
        <time>2019-03-08T10:35:27Z</time>
      </trkpt>
      <trkpt lat="45.91539" lon="6.5023">
        <ele>2057.36</ele>
        <time>2019-03-08T10:35:28Z</time>
      </trkpt>
      <trkpt lat="45.91536" lon="6.50244">
        <ele>2058.8</ele>
        <time>2019-03-08T10:35:38Z</time>
      </trkpt>
      <trkpt lat="45.91542" lon="6.50243">
        <ele>2059.28</ele>
        <time>2019-03-08T10:35:40Z</time>
      </trkpt>
      <trkpt lat="45.91524" lon="6.50254">
        <ele>2061.68</ele>
        <time>2019-03-08T10:35:51Z</time>
      </trkpt>
      <trkpt lat="45.9152" lon="6.50252">
        <ele>2061.68</ele>
        <time>2019-03-08T10:35:52Z</time>
      </trkpt>
      <trkpt lat="45.91518" lon="6.50256">
        <ele>2063.61</ele>
        <time>2019-03-08T10:35:59Z</time>
      </trkpt>
      <trkpt lat="45.91519" lon="6.50257">
        <ele>2063.61</ele>
        <time>2019-03-08T10:36:00Z</time>
      </trkpt>
      <trkpt lat="45.9152" lon="6.50258">
        <ele>2064.57</ele>
        <time>2019-03-08T10:36:02Z</time>
      </trkpt>
      <trkpt lat="45.9152" lon="6.50259">
        <ele>2064.57</ele>
        <time>2019-03-08T10:36:03Z</time>
      </trkpt>
      <trkpt lat="45.91526" lon="6.50268">
        <ele>2067.93</ele>
        <time>2019-03-08T10:36:16Z</time>
      </trkpt>
      <trkpt lat="45.91537" lon="6.50282">
        <ele>2070.82</ele>
        <time>2019-03-08T10:36:32Z</time>
      </trkpt>
      <trkpt lat="45.91541" lon="6.50296">
        <ele>2073.22</ele>
        <time>2019-03-08T10:36:42Z</time>
      </trkpt>
      <trkpt lat="45.91541" lon="6.50298">
        <ele>2073.22</ele>
        <time>2019-03-08T10:36:43Z</time>
      </trkpt>
      <trkpt lat="45.91541" lon="6.50301">
        <ele>2073.7</ele>
        <time>2019-03-08T10:36:45Z</time>
      </trkpt>
      <trkpt lat="45.91541" lon="6.50303">
        <ele>2074.18</ele>
        <time>2019-03-08T10:36:47Z</time>
      </trkpt>
      <trkpt lat="45.91541" lon="6.50304">
        <ele>2074.66</ele>
        <time>2019-03-08T10:36:48Z</time>
      </trkpt>
      <trkpt lat="45.91539" lon="6.50308">
        <ele>2075.14</ele>
        <time>2019-03-08T10:36:51Z</time>
      </trkpt>
      <trkpt lat="45.9154" lon="6.50309">
        <ele>2075.62</ele>
        <time>2019-03-08T10:36:52Z</time>
      </trkpt>
      <trkpt lat="45.91539" lon="6.50311">
        <ele>2075.62</ele>
        <time>2019-03-08T10:36:53Z</time>
      </trkpt>
      <trkpt lat="45.91538" lon="6.50314">
        <ele>2076.1</ele>
        <time>2019-03-08T10:36:54Z</time>
      </trkpt>
      <trkpt lat="45.91537" lon="6.50316">
        <ele>2076.59</ele>
        <time>2019-03-08T10:36:56Z</time>
      </trkpt>
      <trkpt lat="45.91537" lon="6.50318">
        <ele>2076.59</ele>
        <time>2019-03-08T10:36:57Z</time>
      </trkpt>
      <trkpt lat="45.91536" lon="6.50327">
        <ele>2078.03</ele>
        <time>2019-03-08T10:37:02Z</time>
      </trkpt>
      <trkpt lat="45.91535" lon="6.50329">
        <ele>2078.51</ele>
        <time>2019-03-08T10:37:03Z</time>
      </trkpt>
      <trkpt lat="45.91528" lon="6.50344">
        <ele>2081.39</ele>
        <time>2019-03-08T10:37:18Z</time>
      </trkpt>
      <trkpt lat="45.91523" lon="6.50356">
        <ele>2083.79</ele>
        <time>2019-03-08T10:37:29Z</time>
      </trkpt>
      <trkpt lat="45.91521" lon="6.50357">
        <ele>2084.28</ele>
        <time>2019-03-08T10:37:30Z</time>
      </trkpt>
      <trkpt lat="45.91521" lon="6.50358">
        <ele>2084.28</ele>
        <time>2019-03-08T10:37:31Z</time>
      </trkpt>
      <trkpt lat="45.91512" lon="6.50365">
        <ele>2086.2</ele>
        <time>2019-03-08T10:37:39Z</time>
      </trkpt>
      <trkpt lat="45.91505" lon="6.50368">
        <ele>2087.64</ele>
        <time>2019-03-08T10:37:44Z</time>
      </trkpt>
      <trkpt lat="45.91505" lon="6.50368">
        <ele>2087.64</ele>
        <time>2019-03-08T10:37:45Z</time>
      </trkpt>
      <trkpt lat="45.91504" lon="6.50368">
        <ele>2087.64</ele>
        <time>2019-03-08T10:37:46Z</time>
      </trkpt>
      <trkpt lat="45.91503" lon="6.50368">
        <ele>2087.64</ele>
        <time>2019-03-08T10:37:47Z</time>
      </trkpt>
      <trkpt lat="45.91493" lon="6.50371">
        <ele>2091</ele>
        <time>2019-03-08T10:37:59Z</time>
      </trkpt>
      <trkpt lat="45.91479" lon="6.50372">
        <ele>2094.37</ele>
        <time>2019-03-08T10:38:12Z</time>
      </trkpt>
      <trkpt lat="45.9147" lon="6.50369">
        <ele>2097.25</ele>
        <time>2019-03-08T10:38:25Z</time>
      </trkpt>
      <trkpt lat="45.91459" lon="6.50366">
        <ele>2099.66</ele>
        <time>2019-03-08T10:38:36Z</time>
      </trkpt>
      <trkpt lat="45.91457" lon="6.50366">
        <ele>2100.62</ele>
        <time>2019-03-08T10:38:39Z</time>
      </trkpt>
      <trkpt lat="45.91456" lon="6.50366">
        <ele>2100.62</ele>
        <time>2019-03-08T10:38:40Z</time>
      </trkpt>
      <trkpt lat="45.91455" lon="6.50365">
        <ele>2101.1</ele>
        <time>2019-03-08T10:38:41Z</time>
      </trkpt>
      <trkpt lat="45.91454" lon="6.50364">
        <ele>2101.58</ele>
        <time>2019-03-08T10:38:42Z</time>
      </trkpt>
      <trkpt lat="45.91442" lon="6.5036">
        <ele>2104.46</ele>
        <time>2019-03-08T10:38:54Z</time>
      </trkpt>
      <trkpt lat="45.91441" lon="6.50359">
        <ele>2104.94</ele>
        <time>2019-03-08T10:38:55Z</time>
      </trkpt>
      <trkpt lat="45.9144" lon="6.50359">
        <ele>2105.42</ele>
        <time>2019-03-08T10:38:56Z</time>
      </trkpt>
      <trkpt lat="45.91439" lon="6.50358">
        <ele>2105.42</ele>
        <time>2019-03-08T10:38:57Z</time>
      </trkpt>
      <trkpt lat="45.91437" lon="6.50356">
        <ele>2106.39</ele>
        <time>2019-03-08T10:39:00Z</time>
      </trkpt>
      <trkpt lat="45.91435" lon="6.50351">
        <ele>2107.83</ele>
        <time>2019-03-08T10:39:05Z</time>
      </trkpt>
      <trkpt lat="45.91432" lon="6.50348">
        <ele>2108.31</ele>
        <time>2019-03-08T10:39:08Z</time>
      </trkpt>
      <trkpt lat="45.91427" lon="6.50327">
        <ele>2111.19</ele>
        <time>2019-03-08T10:39:24Z</time>
      </trkpt>
      <trkpt lat="45.91427" lon="6.50326">
        <ele>2111.67</ele>
        <time>2019-03-08T10:39:25Z</time>
      </trkpt>
      <trkpt lat="45.91426" lon="6.50325">
        <ele>2111.67</ele>
        <time>2019-03-08T10:39:26Z</time>
      </trkpt>
      <trkpt lat="45.91422" lon="6.50318">
        <ele>2113.12</ele>
        <time>2019-03-08T10:39:33Z</time>
      </trkpt>
      <trkpt lat="45.91421" lon="6.50317">
        <ele>2113.6</ele>
        <time>2019-03-08T10:39:35Z</time>
      </trkpt>
      <trkpt lat="45.9142" lon="6.50315">
        <ele>2114.56</ele>
        <time>2019-03-08T10:39:37Z</time>
      </trkpt>
      <trkpt lat="45.91419" lon="6.50314">
        <ele>2114.56</ele>
        <time>2019-03-08T10:39:38Z</time>
      </trkpt>
      <trkpt lat="45.91418" lon="6.50314">
        <ele>2115.04</ele>
        <time>2019-03-08T10:39:39Z</time>
      </trkpt>
      <trkpt lat="45.91417" lon="6.50313">
        <ele>2115.04</ele>
        <time>2019-03-08T10:39:40Z</time>
      </trkpt>
      <trkpt lat="45.91416" lon="6.50313">
        <ele>2115.04</ele>
        <time>2019-03-08T10:39:41Z</time>
      </trkpt>
      <trkpt lat="45.91414" lon="6.50312">
        <ele>2115.04</ele>
        <time>2019-03-08T10:39:42Z</time>
      </trkpt>
      <trkpt lat="45.91414" lon="6.50311">
        <ele>2115.04</ele>
        <time>2019-03-08T10:39:43Z</time>
      </trkpt>
      <trkpt lat="45.91413" lon="6.5031">
        <ele>2115.52</ele>
        <time>2019-03-08T10:39:44Z</time>
      </trkpt>
      <trkpt lat="45.91412" lon="6.5031">
        <ele>2116</ele>
        <time>2019-03-08T10:39:45Z</time>
      </trkpt>
      <trkpt lat="45.9141" lon="6.50308">
        <ele>2116.48</ele>
        <time>2019-03-08T10:39:48Z</time>
      </trkpt>
      <trkpt lat="45.91409" lon="6.50311">
        <ele>2119.36</ele>
        <time>2019-03-08T10:39:59Z</time>
      </trkpt>
      <trkpt lat="45.91409" lon="6.50312">
        <ele>2119.36</ele>
        <time>2019-03-08T10:40:00Z</time>
      </trkpt>
      <trkpt lat="45.91409" lon="6.50313">
        <ele>2119.36</ele>
        <time>2019-03-08T10:40:01Z</time>
      </trkpt>
      <trkpt lat="45.9141" lon="6.50315">
        <ele>2119.84</ele>
        <time>2019-03-08T10:40:02Z</time>
      </trkpt>
      <trkpt lat="45.91409" lon="6.5033">
        <ele>2123.21</ele>
        <time>2019-03-08T10:40:14Z</time>
      </trkpt>
      <trkpt lat="45.91402" lon="6.50348">
        <ele>2126.09</ele>
        <time>2019-03-08T10:40:31Z</time>
      </trkpt>
      <trkpt lat="45.91396" lon="6.50352">
        <ele>2128.02</ele>
        <time>2019-03-08T10:40:38Z</time>
      </trkpt>
      <trkpt lat="45.91392" lon="6.50361">
        <ele>2131.38</ele>
        <time>2019-03-08T10:40:50Z</time>
      </trkpt>
      <trkpt lat="45.91392" lon="6.50364">
        <ele>2131.38</ele>
        <time>2019-03-08T10:40:52Z</time>
      </trkpt>
      <trkpt lat="45.91389" lon="6.50378">
        <ele>2134.74</ele>
        <time>2019-03-08T10:41:06Z</time>
      </trkpt>
      <trkpt lat="45.91386" lon="6.50393">
        <ele>2137.63</ele>
        <time>2019-03-08T10:41:19Z</time>
      </trkpt>
      <trkpt lat="45.91382" lon="6.50402">
        <ele>2140.99</ele>
        <time>2019-03-08T10:41:32Z</time>
      </trkpt>
      <trkpt lat="45.91372" lon="6.50403">
        <ele>2144.36</ele>
        <time>2019-03-08T10:41:46Z</time>
      </trkpt>
      <trkpt lat="45.91371" lon="6.50403">
        <ele>2144.84</ele>
        <time>2019-03-08T10:41:47Z</time>
      </trkpt>
      <trkpt lat="45.91364" lon="6.50396">
        <ele>2146.76</ele>
        <time>2019-03-08T10:41:57Z</time>
      </trkpt>
      <trkpt lat="45.91355" lon="6.50381">
        <ele>2150.13</ele>
        <time>2019-03-08T10:42:11Z</time>
      </trkpt>
      <trkpt lat="45.91351" lon="6.50367">
        <ele>2153.01</ele>
        <time>2019-03-08T10:42:25Z</time>
      </trkpt>
      <trkpt lat="45.91348" lon="6.50356">
        <ele>2155.89</ele>
        <time>2019-03-08T10:42:37Z</time>
      </trkpt>
      <trkpt lat="45.9134" lon="6.50352">
        <ele>2157.82</ele>
        <time>2019-03-08T10:42:45Z</time>
      </trkpt>
      <trkpt lat="45.91337" lon="6.50351">
        <ele>2158.3</ele>
        <time>2019-03-08T10:42:48Z</time>
      </trkpt>
      <trkpt lat="45.91332" lon="6.50349">
        <ele>2160.22</ele>
        <time>2019-03-08T10:42:54Z</time>
      </trkpt>
      <trkpt lat="45.91329" lon="6.50348">
        <ele>2161.18</ele>
        <time>2019-03-08T10:42:57Z</time>
      </trkpt>
      <trkpt lat="45.91321" lon="6.50344">
        <ele>2164.55</ele>
        <time>2019-03-08T10:43:08Z</time>
      </trkpt>
      <trkpt lat="45.91319" lon="6.50344">
        <ele>2165.03</ele>
        <time>2019-03-08T10:43:09Z</time>
      </trkpt>
      <trkpt lat="45.9131" lon="6.50338">
        <ele>2167.91</ele>
        <time>2019-03-08T10:43:21Z</time>
      </trkpt>
      <trkpt lat="45.91297" lon="6.50329">
        <ele>2170.79</ele>
        <time>2019-03-08T10:43:35Z</time>
      </trkpt>
      <trkpt lat="45.91288" lon="6.50319">
        <ele>2174.16</ele>
        <time>2019-03-08T10:43:47Z</time>
      </trkpt>
      <trkpt lat="45.91286" lon="6.50317">
        <ele>2174.64</ele>
        <time>2019-03-08T10:43:49Z</time>
      </trkpt>
      <trkpt lat="45.91286" lon="6.50317">
        <ele>2174.64</ele>
        <time>2019-03-08T10:43:50Z</time>
      </trkpt>
      <trkpt lat="45.91285" lon="6.50316">
        <ele>2175.12</ele>
        <time>2019-03-08T10:43:51Z</time>
      </trkpt>
      <trkpt lat="45.91284" lon="6.50315">
        <ele>2175.12</ele>
        <time>2019-03-08T10:43:52Z</time>
      </trkpt>
      <trkpt lat="45.91283" lon="6.50314">
        <ele>2175.6</ele>
        <time>2019-03-08T10:43:53Z</time>
      </trkpt>
      <trkpt lat="45.91282" lon="6.50314">
        <ele>2175.6</ele>
        <time>2019-03-08T10:43:54Z</time>
      </trkpt>
      <trkpt lat="45.91281" lon="6.50312">
        <ele>2176.08</ele>
        <time>2019-03-08T10:43:55Z</time>
      </trkpt>
      <trkpt lat="45.9128" lon="6.50311">
        <ele>2176.08</ele>
        <time>2019-03-08T10:43:56Z</time>
      </trkpt>
      <trkpt lat="45.91274" lon="6.50302">
        <ele>2178.97</ele>
        <time>2019-03-08T10:44:07Z</time>
      </trkpt>
      <trkpt lat="45.91271" lon="6.50298">
        <ele>2180.41</ele>
        <time>2019-03-08T10:44:12Z</time>
      </trkpt>
      <trkpt lat="45.91268" lon="6.50299">
        <ele>2183.77</ele>
        <time>2019-03-08T10:44:25Z</time>
      </trkpt>
      <trkpt lat="45.91268" lon="6.50301">
        <ele>2183.77</ele>
        <time>2019-03-08T10:44:27Z</time>
      </trkpt>
      <trkpt lat="45.91267" lon="6.50303">
        <ele>2184.25</ele>
        <time>2019-03-08T10:44:28Z</time>
      </trkpt>
      <trkpt lat="45.91265" lon="6.50318">
        <ele>2187.62</ele>
        <time>2019-03-08T10:44:42Z</time>
      </trkpt>
      <trkpt lat="45.91262" lon="6.50333">
        <ele>2190.5</ele>
        <time>2019-03-08T10:44:56Z</time>
      </trkpt>
      <trkpt lat="45.91263" lon="6.50353">
        <ele>2193.87</ele>
        <time>2019-03-08T10:45:12Z</time>
      </trkpt>
      <trkpt lat="45.91261" lon="6.5037">
        <ele>2197.23</ele>
        <time>2019-03-08T10:45:25Z</time>
      </trkpt>
      <trkpt lat="45.9126" lon="6.50387">
        <ele>2200.11</ele>
        <time>2019-03-08T10:45:39Z</time>
      </trkpt>
      <trkpt lat="45.91254" lon="6.50402">
        <ele>2203</ele>
        <time>2019-03-08T10:45:53Z</time>
      </trkpt>
      <trkpt lat="45.91249" lon="6.50398">
        <ele>2204.44</ele>
        <time>2019-03-08T10:46:00Z</time>
      </trkpt>
      <trkpt lat="45.91248" lon="6.50398">
        <ele>2204.92</ele>
        <time>2019-03-08T10:46:01Z</time>
      </trkpt>
      <trkpt lat="45.91248" lon="6.50397">
        <ele>2205.4</ele>
        <time>2019-03-08T10:46:02Z</time>
      </trkpt>
      <trkpt lat="45.91247" lon="6.50396">
        <ele>2205.4</ele>
        <time>2019-03-08T10:46:03Z</time>
      </trkpt>
      <trkpt lat="45.91246" lon="6.50395">
        <ele>2205.4</ele>
        <time>2019-03-08T10:46:04Z</time>
      </trkpt>
      <trkpt lat="45.91246" lon="6.50394">
        <ele>2205.4</ele>
        <time>2019-03-08T10:46:05Z</time>
      </trkpt>
      <trkpt lat="45.91245" lon="6.50394">
        <ele>2205.88</ele>
        <time>2019-03-08T10:46:06Z</time>
      </trkpt>
      <trkpt lat="45.91235" lon="6.50386">
        <ele>2208.77</ele>
        <time>2019-03-08T10:46:20Z</time>
      </trkpt>
      <trkpt lat="45.91232" lon="6.50383">
        <ele>2212.13</ele>
        <time>2019-03-08T10:46:35Z</time>
      </trkpt>
      <trkpt lat="45.91233" lon="6.50389">
        <ele>2213.57</ele>
        <time>2019-03-08T10:46:40Z</time>
      </trkpt>
      <trkpt lat="45.91231" lon="6.50408">
        <ele>2216.46</ele>
        <time>2019-03-08T10:46:55Z</time>
      </trkpt>
      <trkpt lat="45.9123" lon="6.50422">
        <ele>2219.82</ele>
        <time>2019-03-08T10:47:08Z</time>
      </trkpt>
      <trkpt lat="45.91236" lon="6.50439">
        <ele>2222.71</ele>
        <time>2019-03-08T10:47:22Z</time>
      </trkpt>
      <trkpt lat="45.91239" lon="6.50453">
        <ele>2225.59</ele>
        <time>2019-03-08T10:47:35Z</time>
      </trkpt>
      <trkpt lat="45.91231" lon="6.50454">
        <ele>2227.03</ele>
        <time>2019-03-08T10:47:45Z</time>
      </trkpt>
      <trkpt lat="45.91231" lon="6.50453">
        <ele>2227.51</ele>
        <time>2019-03-08T10:47:46Z</time>
      </trkpt>
      <trkpt lat="45.91229" lon="6.50453">
        <ele>2227.99</ele>
        <time>2019-03-08T10:47:47Z</time>
      </trkpt>
      <trkpt lat="45.91219" lon="6.50446">
        <ele>2230.88</ele>
        <time>2019-03-08T10:48:01Z</time>
      </trkpt>
      <trkpt lat="45.91218" lon="6.50448">
        <ele>2233.28</ele>
        <time>2019-03-08T10:48:10Z</time>
      </trkpt>
      <trkpt lat="45.91219" lon="6.5045">
        <ele>2233.76</ele>
        <time>2019-03-08T10:48:12Z</time>
      </trkpt>
      <trkpt lat="45.91224" lon="6.50466">
        <ele>2237.13</ele>
        <time>2019-03-08T10:48:26Z</time>
      </trkpt>
      <trkpt lat="45.91228" lon="6.50481">
        <ele>2240.01</ele>
        <time>2019-03-08T10:48:39Z</time>
      </trkpt>
      <trkpt lat="45.91229" lon="6.50499">
        <ele>2243.37</ele>
        <time>2019-03-08T10:48:54Z</time>
      </trkpt>
      <trkpt lat="45.91223" lon="6.50503">
        <ele>2244.82</ele>
        <time>2019-03-08T10:49:11Z</time>
      </trkpt>
      <trkpt lat="45.91212" lon="6.50494">
        <ele>2248.18</ele>
        <time>2019-03-08T10:49:26Z</time>
      </trkpt>
      <trkpt lat="45.91207" lon="6.50494">
        <ele>2249.62</ele>
        <time>2019-03-08T10:49:31Z</time>
      </trkpt>
      <trkpt lat="45.91206" lon="6.50494">
        <ele>2249.62</ele>
        <time>2019-03-08T10:49:32Z</time>
      </trkpt>
      <trkpt lat="45.91198" lon="6.50491">
        <ele>2252.99</ele>
        <time>2019-03-08T10:49:44Z</time>
      </trkpt>
      <trkpt lat="45.91188" lon="6.50488">
        <ele>2255.87</ele>
        <time>2019-03-08T10:49:57Z</time>
      </trkpt>
      <trkpt lat="45.91185" lon="6.50491">
        <ele>2258.75</ele>
        <time>2019-03-08T10:50:06Z</time>
      </trkpt>
      <trkpt lat="45.91185" lon="6.50493">
        <ele>2259.24</ele>
        <time>2019-03-08T10:50:08Z</time>
      </trkpt>
      <trkpt lat="45.91185" lon="6.50494">
        <ele>2259.24</ele>
        <time>2019-03-08T10:50:09Z</time>
      </trkpt>
      <trkpt lat="45.91185" lon="6.50511">
        <ele>2262.6</ele>
        <time>2019-03-08T10:50:27Z</time>
      </trkpt>
      <trkpt lat="45.91184" lon="6.50524">
        <ele>2265.96</ele>
        <time>2019-03-08T10:50:40Z</time>
      </trkpt>
      <trkpt lat="45.91184" lon="6.50535">
        <ele>2267.89</ele>
        <time>2019-03-08T10:50:50Z</time>
      </trkpt>
      <trkpt lat="45.91186" lon="6.50539">
        <ele>2269.33</ele>
        <time>2019-03-08T10:50:55Z</time>
      </trkpt>
      <trkpt lat="45.91186" lon="6.50551">
        <ele>2272.21</ele>
        <time>2019-03-08T10:51:08Z</time>
      </trkpt>
      <trkpt lat="45.91178" lon="6.50547">
        <ele>2274.14</ele>
        <time>2019-03-08T10:51:17Z</time>
      </trkpt>
      <trkpt lat="45.91177" lon="6.50547">
        <ele>2274.14</ele>
        <time>2019-03-08T10:51:18Z</time>
      </trkpt>
      <trkpt lat="45.91176" lon="6.50547">
        <ele>2274.62</ele>
        <time>2019-03-08T10:51:19Z</time>
      </trkpt>
      <trkpt lat="45.91167" lon="6.50543">
        <ele>2277.5</ele>
        <time>2019-03-08T10:51:31Z</time>
      </trkpt>
      <trkpt lat="45.91169" lon="6.50548">
        <ele>2279.9</ele>
        <time>2019-03-08T10:51:44Z</time>
      </trkpt>
      <trkpt lat="45.91176" lon="6.50564">
        <ele>2283.27</ele>
        <time>2019-03-08T10:52:00Z</time>
      </trkpt>
      <trkpt lat="45.91169" lon="6.50566">
        <ele>2286.63</ele>
        <time>2019-03-08T10:52:15Z</time>
      </trkpt>
      <trkpt lat="45.91166" lon="6.50565">
        <ele>2286.63</ele>
        <time>2019-03-08T10:52:18Z</time>
      </trkpt>
      <trkpt lat="45.91159" lon="6.50562">
        <ele>2290</ele>
        <time>2019-03-08T10:52:30Z</time>
      </trkpt>
      <trkpt lat="45.91161" lon="6.5057">
        <ele>2291.44</ele>
        <time>2019-03-08T10:52:38Z</time>
      </trkpt>
      <trkpt lat="45.91168" lon="6.50587">
        <ele>2294.8</ele>
        <time>2019-03-08T10:52:54Z</time>
      </trkpt>
      <trkpt lat="45.91166" lon="6.50591">
        <ele>2297.69</ele>
        <time>2019-03-08T10:53:10Z</time>
      </trkpt>
      <trkpt lat="45.91161" lon="6.5059">
        <ele>2299.13</ele>
        <time>2019-03-08T10:53:16Z</time>
      </trkpt>
      <trkpt lat="45.91161" lon="6.50589">
        <ele>2299.61</ele>
        <time>2019-03-08T10:53:17Z</time>
      </trkpt>
      <trkpt lat="45.9116" lon="6.50589">
        <ele>2299.61</ele>
        <time>2019-03-08T10:53:18Z</time>
      </trkpt>
      <trkpt lat="45.91151" lon="6.50586">
        <ele>2302.49</ele>
        <time>2019-03-08T10:53:32Z</time>
      </trkpt>
      <trkpt lat="45.91152" lon="6.50591">
        <ele>2303.46</ele>
        <time>2019-03-08T10:53:38Z</time>
      </trkpt>
      <trkpt lat="45.91158" lon="6.50604">
        <ele>2306.82</ele>
        <time>2019-03-08T10:53:51Z</time>
      </trkpt>
      <trkpt lat="45.91162" lon="6.50612">
        <ele>2309.22</ele>
        <time>2019-03-08T10:54:03Z</time>
      </trkpt>
      <trkpt lat="45.91163" lon="6.50615">
        <ele>2310.67</ele>
        <time>2019-03-08T10:54:10Z</time>
      </trkpt>
      <trkpt lat="45.91164" lon="6.50616">
        <ele>2310.67</ele>
        <time>2019-03-08T10:54:11Z</time>
      </trkpt>
      <trkpt lat="45.91158" lon="6.50613">
        <ele>2313.55</ele>
        <time>2019-03-08T10:54:20Z</time>
      </trkpt>
      <trkpt lat="45.91156" lon="6.50612">
        <ele>2314.03</ele>
        <time>2019-03-08T10:54:22Z</time>
      </trkpt>
      <trkpt lat="45.91155" lon="6.50612">
        <ele>2314.03</ele>
        <time>2019-03-08T10:54:23Z</time>
      </trkpt>
      <trkpt lat="45.91151" lon="6.50609">
        <ele>2315.95</ele>
        <time>2019-03-08T10:54:29Z</time>
      </trkpt>
      <trkpt lat="45.91142" lon="6.50607">
        <ele>2318.84</ele>
        <time>2019-03-08T10:54:41Z</time>
      </trkpt>
      <trkpt lat="45.91137" lon="6.50606">
        <ele>2320.28</ele>
        <time>2019-03-08T10:54:47Z</time>
      </trkpt>
      <trkpt lat="45.91136" lon="6.50606">
        <ele>2320.76</ele>
        <time>2019-03-08T10:54:48Z</time>
      </trkpt>
      <trkpt lat="45.91125" lon="6.50604">
        <ele>2323.64</ele>
        <time>2019-03-08T10:55:01Z</time>
      </trkpt>
      <trkpt lat="45.91125" lon="6.50614">
        <ele>2327.01</ele>
        <time>2019-03-08T10:55:16Z</time>
      </trkpt>
      <trkpt lat="45.91129" lon="6.50626">
        <ele>2329.41</ele>
        <time>2019-03-08T10:55:27Z</time>
      </trkpt>
      <trkpt lat="45.91132" lon="6.50636">
        <ele>2332.3</ele>
        <time>2019-03-08T10:55:40Z</time>
      </trkpt>
      <trkpt lat="45.91131" lon="6.50644">
        <ele>2335.66</ele>
        <time>2019-03-08T10:55:54Z</time>
      </trkpt>
      <trkpt lat="45.91123" lon="6.50641">
        <ele>2338.54</ele>
        <time>2019-03-08T10:56:07Z</time>
      </trkpt>
      <trkpt lat="45.91115" lon="6.50639">
        <ele>2341.43</ele>
        <time>2019-03-08T10:56:18Z</time>
      </trkpt>
      <trkpt lat="45.91103" lon="6.50639">
        <ele>2344.31</ele>
        <time>2019-03-08T10:56:33Z</time>
      </trkpt>
      <trkpt lat="45.91095" lon="6.50635">
        <ele>2347.68</ele>
        <time>2019-03-08T10:56:44Z</time>
      </trkpt>
      <trkpt lat="45.91086" lon="6.50627">
        <ele>2351.04</ele>
        <time>2019-03-08T10:56:58Z</time>
      </trkpt>
      <trkpt lat="45.91085" lon="6.50626">
        <ele>2351.52</ele>
        <time>2019-03-08T10:57:00Z</time>
      </trkpt>
      <trkpt lat="45.91084" lon="6.50625">
        <ele>2352</ele>
        <time>2019-03-08T10:57:01Z</time>
      </trkpt>
      <trkpt lat="45.91083" lon="6.50625">
        <ele>2352</ele>
        <time>2019-03-08T10:57:02Z</time>
      </trkpt>
      <trkpt lat="45.91082" lon="6.50624">
        <ele>2352</ele>
        <time>2019-03-08T10:57:03Z</time>
      </trkpt>
      <trkpt lat="45.91081" lon="6.50624">
        <ele>2352</ele>
        <time>2019-03-08T10:57:04Z</time>
      </trkpt>
      <trkpt lat="45.9108" lon="6.50623">
        <ele>2352.48</ele>
        <time>2019-03-08T10:57:05Z</time>
      </trkpt>
      <trkpt lat="45.91079" lon="6.50622">
        <ele>2352.96</ele>
        <time>2019-03-08T10:57:06Z</time>
      </trkpt>
      <trkpt lat="45.91078" lon="6.50621">
        <ele>2352.96</ele>
        <time>2019-03-08T10:57:08Z</time>
      </trkpt>
      <trkpt lat="45.91077" lon="6.5062">
        <ele>2353.44</ele>
        <time>2019-03-08T10:57:10Z</time>
      </trkpt>
      <trkpt lat="45.91075" lon="6.5062">
        <ele>2353.93</ele>
        <time>2019-03-08T10:57:11Z</time>
      </trkpt>
      <trkpt lat="45.91074" lon="6.50619">
        <ele>2354.41</ele>
        <time>2019-03-08T10:57:12Z</time>
      </trkpt>
      <trkpt lat="45.91073" lon="6.50619">
        <ele>2354.41</ele>
        <time>2019-03-08T10:57:13Z</time>
      </trkpt>
      <trkpt lat="45.91072" lon="6.50618">
        <ele>2354.41</ele>
        <time>2019-03-08T10:57:14Z</time>
      </trkpt>
      <trkpt lat="45.91069" lon="6.50613">
        <ele>2356.33</ele>
        <time>2019-03-08T10:57:21Z</time>
      </trkpt>
      <trkpt lat="45.91068" lon="6.50611">
        <ele>2356.81</ele>
        <time>2019-03-08T10:57:23Z</time>
      </trkpt>
      <trkpt lat="45.91069" lon="6.5061">
        <ele>2357.29</ele>
        <time>2019-03-08T10:57:24Z</time>
      </trkpt>
      <trkpt lat="45.91061" lon="6.50597">
        <ele>2360.17</ele>
        <time>2019-03-08T10:57:38Z</time>
      </trkpt>
      <trkpt lat="45.91061" lon="6.50592">
        <ele>2361.14</ele>
        <time>2019-03-08T10:57:43Z</time>
      </trkpt>
      <trkpt lat="45.91058" lon="6.50577">
        <ele>2364.5</ele>
        <time>2019-03-08T10:57:56Z</time>
      </trkpt>
      <trkpt lat="45.91055" lon="6.50569">
        <ele>2366.42</ele>
        <time>2019-03-08T10:58:05Z</time>
      </trkpt>
      <trkpt lat="45.91051" lon="6.50564">
        <ele>2369.31</ele>
        <time>2019-03-08T10:58:15Z</time>
      </trkpt>
      <trkpt lat="45.91051" lon="6.50577">
        <ele>2372.19</ele>
        <time>2019-03-08T10:58:30Z</time>
      </trkpt>
      <trkpt lat="45.91054" lon="6.5061">
        <ele>2376.04</ele>
        <time>2019-03-08T10:58:51Z</time>
      </trkpt>
      <trkpt lat="45.91056" lon="6.50634">
        <ele>2378.92</ele>
        <time>2019-03-08T10:59:10Z</time>
      </trkpt>
      <trkpt lat="45.9105" lon="6.50631">
        <ele>2381.32</ele>
        <time>2019-03-08T10:59:24Z</time>
      </trkpt>
      <trkpt lat="45.91049" lon="6.5063">
        <ele>2381.8</ele>
        <time>2019-03-08T10:59:25Z</time>
      </trkpt>
      <trkpt lat="45.91049" lon="6.5063">
        <ele>2381.8</ele>
        <time>2019-03-08T10:59:26Z</time>
      </trkpt>
      <trkpt lat="45.9104" lon="6.50621">
        <ele>2384.69</ele>
        <time>2019-03-08T10:59:39Z</time>
      </trkpt>
      <trkpt lat="45.91032" lon="6.50611">
        <ele>2387.57</ele>
        <time>2019-03-08T10:59:52Z</time>
      </trkpt>
      <trkpt lat="45.91029" lon="6.50607">
        <ele>2389.49</ele>
        <time>2019-03-08T10:59:57Z</time>
      </trkpt>
      <trkpt lat="45.91028" lon="6.5061">
        <ele>2391.42</ele>
        <time>2019-03-08T11:00:06Z</time>
      </trkpt>
      <trkpt lat="45.91028" lon="6.50625">
        <ele>2394.3</ele>
        <time>2019-03-08T11:00:20Z</time>
      </trkpt>
      <trkpt lat="45.91028" lon="6.50627">
        <ele>2394.78</ele>
        <time>2019-03-08T11:00:21Z</time>
      </trkpt>
      <trkpt lat="45.91028" lon="6.50629">
        <ele>2395.26</ele>
        <time>2019-03-08T11:00:23Z</time>
      </trkpt>
      <trkpt lat="45.91027" lon="6.50642">
        <ele>2398.63</ele>
        <time>2019-03-08T11:00:35Z</time>
      </trkpt>
      <trkpt lat="45.91024" lon="6.50648">
        <ele>2401.03</ele>
        <time>2019-03-08T11:00:50Z</time>
      </trkpt>
      <trkpt lat="45.91013" lon="6.50639">
        <ele>2403.91</ele>
        <time>2019-03-08T11:01:04Z</time>
      </trkpt>
      <trkpt lat="45.9101" lon="6.50636">
        <ele>2405.84</ele>
        <time>2019-03-08T11:01:09Z</time>
      </trkpt>
      <trkpt lat="45.91009" lon="6.50634">
        <ele>2406.32</ele>
        <time>2019-03-08T11:01:11Z</time>
      </trkpt>
      <trkpt lat="45.91007" lon="6.50637">
        <ele>2408.24</ele>
        <time>2019-03-08T11:01:25Z</time>
      </trkpt>
      <trkpt lat="45.91008" lon="6.50655">
        <ele>2411.6</ele>
        <time>2019-03-08T11:01:39Z</time>
      </trkpt>
      <trkpt lat="45.91001" lon="6.50662">
        <ele>2414.49</ele>
        <time>2019-03-08T11:01:56Z</time>
      </trkpt>
      <trkpt lat="45.90993" lon="6.50656">
        <ele>2417.37</ele>
        <time>2019-03-08T11:02:09Z</time>
      </trkpt>
      <trkpt lat="45.90992" lon="6.50662">
        <ele>2418.81</ele>
        <time>2019-03-08T11:02:15Z</time>
      </trkpt>
      <trkpt lat="45.90994" lon="6.50678">
        <ele>2421.7</ele>
        <time>2019-03-08T11:02:30Z</time>
      </trkpt>
      <trkpt lat="45.90995" lon="6.50694">
        <ele>2425.06</ele>
        <time>2019-03-08T11:02:43Z</time>
      </trkpt>
      <trkpt lat="45.90993" lon="6.50704">
        <ele>2427.95</ele>
        <time>2019-03-08T11:02:57Z</time>
      </trkpt>
      <trkpt lat="45.90992" lon="6.50703">
        <ele>2427.95</ele>
        <time>2019-03-08T11:02:58Z</time>
      </trkpt>
      <trkpt lat="45.90981" lon="6.50696">
        <ele>2430.83</ele>
        <time>2019-03-08T11:03:11Z</time>
      </trkpt>
      <trkpt lat="45.90974" lon="6.50686">
        <ele>2433.71</ele>
        <time>2019-03-08T11:03:23Z</time>
      </trkpt>
      <trkpt lat="45.90974" lon="6.50685">
        <ele>2435.64</ele>
        <time>2019-03-08T11:03:26Z</time>
      </trkpt>
      <trkpt lat="45.90972" lon="6.5069">
        <ele>2436.6</ele>
        <time>2019-03-08T11:03:32Z</time>
      </trkpt>
      <trkpt lat="45.90972" lon="6.50704">
        <ele>2439.48</ele>
        <time>2019-03-08T11:03:45Z</time>
      </trkpt>
      <trkpt lat="45.90968" lon="6.50717">
        <ele>2442.37</ele>
        <time>2019-03-08T11:04:03Z</time>
      </trkpt>
      <trkpt lat="45.90968" lon="6.50717">
        <ele>2442.85</ele>
        <time>2019-03-08T11:04:04Z</time>
      </trkpt>
      <trkpt lat="45.90958" lon="6.50708">
        <ele>2446.21</ele>
        <time>2019-03-08T11:04:17Z</time>
      </trkpt>
      <trkpt lat="45.90956" lon="6.50712">
        <ele>2449.1</ele>
        <time>2019-03-08T11:04:30Z</time>
      </trkpt>
      <trkpt lat="45.90956" lon="6.50713">
        <ele>2449.1</ele>
        <time>2019-03-08T11:04:31Z</time>
      </trkpt>
      <trkpt lat="45.90957" lon="6.50715">
        <ele>2449.1</ele>
        <time>2019-03-08T11:04:32Z</time>
      </trkpt>
      <trkpt lat="45.90957" lon="6.50736">
        <ele>2452.46</ele>
        <time>2019-03-08T11:04:48Z</time>
      </trkpt>
      <trkpt lat="45.90963" lon="6.50748">
        <ele>2455.82</ele>
        <time>2019-03-08T11:05:00Z</time>
      </trkpt>
      <trkpt lat="45.90959" lon="6.50753">
        <ele>2458.71</ele>
        <time>2019-03-08T11:05:13Z</time>
      </trkpt>
      <trkpt lat="45.90956" lon="6.50753">
        <ele>2459.67</ele>
        <time>2019-03-08T11:05:16Z</time>
      </trkpt>
      <trkpt lat="45.90956" lon="6.50753">
        <ele>2459.67</ele>
        <time>2019-03-08T11:05:17Z</time>
      </trkpt>
      <trkpt lat="45.90955" lon="6.50752">
        <ele>2460.15</ele>
        <time>2019-03-08T11:05:18Z</time>
      </trkpt>
      <trkpt lat="45.90946" lon="6.50744">
        <ele>2463.04</ele>
        <time>2019-03-08T11:05:31Z</time>
      </trkpt>
      <trkpt lat="45.90945" lon="6.50747">
        <ele>2464.48</ele>
        <time>2019-03-08T11:05:39Z</time>
      </trkpt>
      <trkpt lat="45.90945" lon="6.50748">
        <ele>2464.48</ele>
        <time>2019-03-08T11:05:40Z</time>
      </trkpt>
      <trkpt lat="45.90953" lon="6.50768">
        <ele>2467.84</ele>
        <time>2019-03-08T11:05:57Z</time>
      </trkpt>
      <trkpt lat="45.90956" lon="6.50781">
        <ele>2470.73</ele>
        <time>2019-03-08T11:06:12Z</time>
      </trkpt>
      <trkpt lat="45.90953" lon="6.5078">
        <ele>2472.17</ele>
        <time>2019-03-08T11:06:17Z</time>
      </trkpt>
      <trkpt lat="45.90952" lon="6.5078">
        <ele>2472.17</ele>
        <time>2019-03-08T11:06:18Z</time>
      </trkpt>
      <trkpt lat="45.9095" lon="6.50779">
        <ele>2472.17</ele>
        <time>2019-03-08T11:06:20Z</time>
      </trkpt>
      <trkpt lat="45.90949" lon="6.50779">
        <ele>2472.65</ele>
        <time>2019-03-08T11:06:21Z</time>
      </trkpt>
      <trkpt lat="45.9094" lon="6.50772">
        <ele>2476.01</ele>
        <time>2019-03-08T11:06:39Z</time>
      </trkpt>
      <trkpt lat="45.9093" lon="6.50767">
        <ele>2479.38</ele>
        <time>2019-03-08T11:06:57Z</time>
      </trkpt>
      <trkpt lat="45.90933" lon="6.50772">
        <ele>2480.82</ele>
        <time>2019-03-08T11:07:08Z</time>
      </trkpt>
      <trkpt lat="45.90935" lon="6.50779">
        <ele>2482.26</ele>
        <time>2019-03-08T11:07:16Z</time>
      </trkpt>
      <trkpt lat="45.90938" lon="6.50788">
        <ele>2484.18</ele>
        <time>2019-03-08T11:07:27Z</time>
      </trkpt>
      <trkpt lat="45.90941" lon="6.50801">
        <ele>2487.55</ele>
        <time>2019-03-08T11:07:44Z</time>
      </trkpt>
      <trkpt lat="45.90945" lon="6.50812">
        <ele>2490.43</ele>
        <time>2019-03-08T11:07:58Z</time>
      </trkpt>
      <trkpt lat="45.90949" lon="6.50827">
        <ele>2493.32</ele>
        <time>2019-03-08T11:08:16Z</time>
      </trkpt>
      <trkpt lat="45.90938" lon="6.50828">
        <ele>2496.68</ele>
        <time>2019-03-08T11:08:39Z</time>
      </trkpt>
      <trkpt lat="45.90937" lon="6.50827">
        <ele>2496.68</ele>
        <time>2019-03-08T11:08:41Z</time>
      </trkpt>
      <trkpt lat="45.90933" lon="6.50826">
        <ele>2500.05</ele>
        <time>2019-03-08T11:09:05Z</time>
      </trkpt>
      <trkpt lat="45.90938" lon="6.50842">
        <ele>2502.93</ele>
        <time>2019-03-08T11:09:28Z</time>
      </trkpt>
      <trkpt lat="45.90942" lon="6.50856">
        <ele>2505.81</ele>
        <time>2019-03-08T11:09:47Z</time>
      </trkpt>
      <trkpt lat="45.9094" lon="6.50868">
        <ele>2509.18</ele>
        <time>2019-03-08T11:10:13Z</time>
      </trkpt>
      <trkpt lat="45.90933" lon="6.50857">
        <ele>2512.06</ele>
        <time>2019-03-08T11:11:03Z</time>
      </trkpt>
      <trkpt lat="45.90931" lon="6.50856">
        <ele>2513.02</ele>
        <time>2019-03-08T11:11:34Z</time>
      </trkpt>
      <trkpt lat="45.90915" lon="6.50842">
        <ele>2516.39</ele>
        <time>2019-03-08T11:12:05Z</time>
      </trkpt>
      <trkpt lat="45.90909" lon="6.50834">
        <ele>2519.75</ele>
        <time>2019-03-08T11:12:32Z</time>
      </trkpt>
      <trkpt lat="45.90906" lon="6.50844">
        <ele>2522.64</ele>
        <time>2019-03-08T11:12:54Z</time>
      </trkpt>
      <trkpt lat="45.909" lon="6.50842">
        <ele>2525.52</ele>
        <time>2019-03-08T11:13:14Z</time>
      </trkpt>
      <trkpt lat="45.90901" lon="6.50839">
        <ele>2526.96</ele>
        <time>2019-03-08T11:13:20Z</time>
      </trkpt>
      <trkpt lat="45.90902" lon="6.5084">
        <ele>2526.96</ele>
        <time>2019-03-08T11:13:22Z</time>
      </trkpt>
      <trkpt lat="45.90907" lon="6.50849">
        <ele>2529.85</ele>
        <time>2019-03-08T11:14:22Z</time>
      </trkpt>
      <trkpt lat="45.90906" lon="6.50848">
        <ele>2528.4</ele>
        <time>2019-03-08T11:16:24Z</time>
      </trkpt>
      <trkpt lat="45.90905" lon="6.50848">
        <ele>2528.89</ele>
        <time>2019-03-08T11:17:28Z</time>
      </trkpt>
      <trkpt lat="45.90906" lon="6.50846">
        <ele>2528.4</ele>
        <time>2019-03-08T11:20:06Z</time>
      </trkpt>
      <trkpt lat="45.90907" lon="6.50848">
        <ele>2527.92</ele>
        <time>2019-03-08T11:20:14Z</time>
      </trkpt>
      <trkpt lat="45.90909" lon="6.50849">
        <ele>2527.92</ele>
        <time>2019-03-08T11:20:15Z</time>
      </trkpt>
      <trkpt lat="45.9091" lon="6.5085">
        <ele>2527.92</ele>
        <time>2019-03-08T11:20:16Z</time>
      </trkpt>
      <trkpt lat="45.90912" lon="6.50851">
        <ele>2526.96</ele>
        <time>2019-03-08T11:20:19Z</time>
      </trkpt>
      <trkpt lat="45.90913" lon="6.50851">
        <ele>2526.48</ele>
        <time>2019-03-08T11:20:20Z</time>
      </trkpt>
      <trkpt lat="45.90915" lon="6.5085">
        <ele>2526.48</ele>
        <time>2019-03-08T11:20:21Z</time>
      </trkpt>
      <trkpt lat="45.90917" lon="6.50848">
        <ele>2525.52</ele>
        <time>2019-03-08T11:20:22Z</time>
      </trkpt>
      <trkpt lat="45.9092" lon="6.50846">
        <ele>2523.6</ele>
        <time>2019-03-08T11:20:23Z</time>
      </trkpt>
      <trkpt lat="45.90924" lon="6.50846">
        <ele>2521.68</ele>
        <time>2019-03-08T11:20:24Z</time>
      </trkpt>
      <trkpt lat="45.90928" lon="6.50848">
        <ele>2519.75</ele>
        <time>2019-03-08T11:20:25Z</time>
      </trkpt>
      <trkpt lat="45.9093" lon="6.50845">
        <ele>2518.31</ele>
        <time>2019-03-08T11:20:26Z</time>
      </trkpt>
      <trkpt lat="45.9093" lon="6.5084">
        <ele>2516.39</ele>
        <time>2019-03-08T11:20:27Z</time>
      </trkpt>
      <trkpt lat="45.9093" lon="6.50835">
        <ele>2514.95</ele>
        <time>2019-03-08T11:20:28Z</time>
      </trkpt>
      <trkpt lat="45.90929" lon="6.50831">
        <ele>2513.5</ele>
        <time>2019-03-08T11:20:29Z</time>
      </trkpt>
      <trkpt lat="45.90931" lon="6.50826">
        <ele>2512.54</ele>
        <time>2019-03-08T11:20:30Z</time>
      </trkpt>
      <trkpt lat="45.90935" lon="6.50824">
        <ele>2510.62</ele>
        <time>2019-03-08T11:20:31Z</time>
      </trkpt>
      <trkpt lat="45.9094" lon="6.50824">
        <ele>2508.22</ele>
        <time>2019-03-08T11:20:32Z</time>
      </trkpt>
      <trkpt lat="45.90945" lon="6.50823">
        <ele>2505.81</ele>
        <time>2019-03-08T11:20:33Z</time>
      </trkpt>
      <trkpt lat="45.90949" lon="6.50821">
        <ele>2503.41</ele>
        <time>2019-03-08T11:20:34Z</time>
      </trkpt>
      <trkpt lat="45.90951" lon="6.50814">
        <ele>2499.57</ele>
        <time>2019-03-08T11:20:35Z</time>
      </trkpt>
      <trkpt lat="45.90952" lon="6.50807">
        <ele>2497.16</ele>
        <time>2019-03-08T11:20:36Z</time>
      </trkpt>
      <trkpt lat="45.90958" lon="6.50804">
        <ele>2494.28</ele>
        <time>2019-03-08T11:20:37Z</time>
      </trkpt>
      <trkpt lat="45.90964" lon="6.50804">
        <ele>2492.36</ele>
        <time>2019-03-08T11:20:38Z</time>
      </trkpt>
      <trkpt lat="45.90969" lon="6.50802">
        <ele>2488.99</ele>
        <time>2019-03-08T11:20:39Z</time>
      </trkpt>
      <trkpt lat="45.90973" lon="6.50796">
        <ele>2485.63</ele>
        <time>2019-03-08T11:20:40Z</time>
      </trkpt>
      <trkpt lat="45.90978" lon="6.50793">
        <ele>2481.78</ele>
        <time>2019-03-08T11:20:41Z</time>
      </trkpt>
      <trkpt lat="45.90983" lon="6.50792">
        <ele>2479.86</ele>
        <time>2019-03-08T11:20:42Z</time>
      </trkpt>
      <trkpt lat="45.90987" lon="6.50791">
        <ele>2477.45</ele>
        <time>2019-03-08T11:20:43Z</time>
      </trkpt>
      <trkpt lat="45.9099" lon="6.50786">
        <ele>2473.61</ele>
        <time>2019-03-08T11:20:44Z</time>
      </trkpt>
      <trkpt lat="45.90993" lon="6.5078">
        <ele>2470.24</ele>
        <time>2019-03-08T11:20:45Z</time>
      </trkpt>
      <trkpt lat="45.90996" lon="6.50772">
        <ele>2467.36</ele>
        <time>2019-03-08T11:20:46Z</time>
      </trkpt>
      <trkpt lat="45.90997" lon="6.50764">
        <ele>2465.44</ele>
        <time>2019-03-08T11:20:47Z</time>
      </trkpt>
      <trkpt lat="45.90996" lon="6.50756">
        <ele>2461.59</ele>
        <time>2019-03-08T11:20:48Z</time>
      </trkpt>
      <trkpt lat="45.90998" lon="6.5075">
        <ele>2458.71</ele>
        <time>2019-03-08T11:20:49Z</time>
      </trkpt>
      <trkpt lat="45.91002" lon="6.50744">
        <ele>2456.79</ele>
        <time>2019-03-08T11:20:50Z</time>
      </trkpt>
      <trkpt lat="45.91005" lon="6.50736">
        <ele>2452.94</ele>
        <time>2019-03-08T11:20:51Z</time>
      </trkpt>
      <trkpt lat="45.91008" lon="6.50728">
        <ele>2448.62</ele>
        <time>2019-03-08T11:20:52Z</time>
      </trkpt>
      <trkpt lat="45.91014" lon="6.50724">
        <ele>2445.25</ele>
        <time>2019-03-08T11:20:53Z</time>
      </trkpt>
      <trkpt lat="45.9102" lon="6.50719">
        <ele>2442.37</ele>
        <time>2019-03-08T11:20:54Z</time>
      </trkpt>
      <trkpt lat="45.91027" lon="6.50713">
        <ele>2439</ele>
        <time>2019-03-08T11:20:55Z</time>
      </trkpt>
      <trkpt lat="45.91034" lon="6.50707">
        <ele>2434.2</ele>
        <time>2019-03-08T11:20:56Z</time>
      </trkpt>
      <trkpt lat="45.91041" lon="6.50699">
        <ele>2430.35</ele>
        <time>2019-03-08T11:20:57Z</time>
      </trkpt>
      <trkpt lat="45.91049" lon="6.5069">
        <ele>2426.02</ele>
        <time>2019-03-08T11:20:58Z</time>
      </trkpt>
      <trkpt lat="45.91051" lon="6.50678">
        <ele>2423.62</ele>
        <time>2019-03-08T11:20:59Z</time>
      </trkpt>
      <trkpt lat="45.91057" lon="6.50669">
        <ele>2417.37</ele>
        <time>2019-03-08T11:21:00Z</time>
      </trkpt>
      <trkpt lat="45.91065" lon="6.50662">
        <ele>2411.6</ele>
        <time>2019-03-08T11:21:01Z</time>
      </trkpt>
      <trkpt lat="45.91071" lon="6.50657">
        <ele>2408.24</ele>
        <time>2019-03-08T11:21:02Z</time>
      </trkpt>
      <trkpt lat="45.9108" lon="6.50657">
        <ele>2403.43</ele>
        <time>2019-03-08T11:21:03Z</time>
      </trkpt>
      <trkpt lat="45.9109" lon="6.5066">
        <ele>2398.15</ele>
        <time>2019-03-08T11:21:04Z</time>
      </trkpt>
      <trkpt lat="45.911" lon="6.50659">
        <ele>2393.34</ele>
        <time>2019-03-08T11:21:05Z</time>
      </trkpt>
      <trkpt lat="45.91111" lon="6.50656">
        <ele>2385.17</ele>
        <time>2019-03-08T11:21:06Z</time>
      </trkpt>
      <trkpt lat="45.91122" lon="6.50655">
        <ele>2379.4</ele>
        <time>2019-03-08T11:21:07Z</time>
      </trkpt>
      <trkpt lat="45.91131" lon="6.50648">
        <ele>2373.63</ele>
        <time>2019-03-08T11:21:08Z</time>
      </trkpt>
      <trkpt lat="45.91137" lon="6.50636">
        <ele>2365.94</ele>
        <time>2019-03-08T11:21:09Z</time>
      </trkpt>
      <trkpt lat="45.91145" lon="6.50627">
        <ele>2358.73</ele>
        <time>2019-03-08T11:21:10Z</time>
      </trkpt>
      <trkpt lat="45.91157" lon="6.50623">
        <ele>2352.96</ele>
        <time>2019-03-08T11:21:11Z</time>
      </trkpt>
      <trkpt lat="45.91164" lon="6.50613">
        <ele>2347.2</ele>
        <time>2019-03-08T11:21:12Z</time>
      </trkpt>
      <trkpt lat="45.91174" lon="6.50604">
        <ele>2340.95</ele>
        <time>2019-03-08T11:21:13Z</time>
      </trkpt>
      <trkpt lat="45.91185" lon="6.50596">
        <ele>2334.7</ele>
        <time>2019-03-08T11:21:14Z</time>
      </trkpt>
      <trkpt lat="45.91194" lon="6.50587">
        <ele>2328.93</ele>
        <time>2019-03-08T11:21:15Z</time>
      </trkpt>
      <trkpt lat="45.91203" lon="6.50576">
        <ele>2319.32</ele>
        <time>2019-03-08T11:21:16Z</time>
      </trkpt>
      <trkpt lat="45.91214" lon="6.50568">
        <ele>2314.99</ele>
        <time>2019-03-08T11:21:17Z</time>
      </trkpt>
      <trkpt lat="45.91223" lon="6.50557">
        <ele>2310.67</ele>
        <time>2019-03-08T11:21:18Z</time>
      </trkpt>
      <trkpt lat="45.91232" lon="6.50545">
        <ele>2300.57</ele>
        <time>2019-03-08T11:21:19Z</time>
      </trkpt>
      <trkpt lat="45.91244" lon="6.50537">
        <ele>2293.84</ele>
        <time>2019-03-08T11:21:20Z</time>
      </trkpt>
      <trkpt lat="45.91254" lon="6.50528">
        <ele>2287.11</ele>
        <time>2019-03-08T11:21:21Z</time>
      </trkpt>
      <trkpt lat="45.91263" lon="6.50515">
        <ele>2278.94</ele>
        <time>2019-03-08T11:21:22Z</time>
      </trkpt>
      <trkpt lat="45.91272" lon="6.50506">
        <ele>2269.33</ele>
        <time>2019-03-08T11:21:23Z</time>
      </trkpt>
      <trkpt lat="45.91284" lon="6.50504">
        <ele>2263.56</ele>
        <time>2019-03-08T11:21:24Z</time>
      </trkpt>
      <trkpt lat="45.91295" lon="6.50499">
        <ele>2259.72</ele>
        <time>2019-03-08T11:21:25Z</time>
      </trkpt>
      <trkpt lat="45.91303" lon="6.50494">
        <ele>2255.39</ele>
        <time>2019-03-08T11:21:26Z</time>
      </trkpt>
      <trkpt lat="45.91313" lon="6.50492">
        <ele>2248.18</ele>
        <time>2019-03-08T11:21:27Z</time>
      </trkpt>
      <trkpt lat="45.91318" lon="6.50485">
        <ele>2243.85</ele>
        <time>2019-03-08T11:21:28Z</time>
      </trkpt>
      <trkpt lat="45.91324" lon="6.50473">
        <ele>2239.05</ele>
        <time>2019-03-08T11:21:29Z</time>
      </trkpt>
      <trkpt lat="45.91332" lon="6.50466">
        <ele>2233.28</ele>
        <time>2019-03-08T11:21:30Z</time>
      </trkpt>
      <trkpt lat="45.9134" lon="6.50458">
        <ele>2228.47</ele>
        <time>2019-03-08T11:21:31Z</time>
      </trkpt>
      <trkpt lat="45.91345" lon="6.50444">
        <ele>2221.26</ele>
        <time>2019-03-08T11:21:32Z</time>
      </trkpt>
      <trkpt lat="45.91352" lon="6.50433">
        <ele>2215.98</ele>
        <time>2019-03-08T11:21:33Z</time>
      </trkpt>
      <trkpt lat="45.91362" lon="6.50422">
        <ele>2210.21</ele>
        <time>2019-03-08T11:21:34Z</time>
      </trkpt>
      <trkpt lat="45.91371" lon="6.50409">
        <ele>2205.88</ele>
        <time>2019-03-08T11:21:35Z</time>
      </trkpt>
      <trkpt lat="45.9138" lon="6.50399">
        <ele>2197.23</ele>
        <time>2019-03-08T11:21:36Z</time>
      </trkpt>
      <trkpt lat="45.91394" lon="6.50393">
        <ele>2190.98</ele>
        <time>2019-03-08T11:21:37Z</time>
      </trkpt>
      <trkpt lat="45.91405" lon="6.50383">
        <ele>2184.73</ele>
        <time>2019-03-08T11:21:38Z</time>
      </trkpt>
      <trkpt lat="45.91413" lon="6.50376">
        <ele>2175.12</ele>
        <time>2019-03-08T11:21:39Z</time>
      </trkpt>
      <trkpt lat="45.91422" lon="6.50375">
        <ele>2169.83</ele>
        <time>2019-03-08T11:21:40Z</time>
      </trkpt>
      <trkpt lat="45.91433" lon="6.50377">
        <ele>2166.47</ele>
        <time>2019-03-08T11:21:41Z</time>
      </trkpt>
      <trkpt lat="45.91442" lon="6.50372">
        <ele>2163.58</ele>
        <time>2019-03-08T11:21:42Z</time>
      </trkpt>
      <trkpt lat="45.91449" lon="6.50368">
        <ele>2161.18</ele>
        <time>2019-03-08T11:21:43Z</time>
      </trkpt>
      <trkpt lat="45.91459" lon="6.50366">
        <ele>2155.41</ele>
        <time>2019-03-08T11:21:44Z</time>
      </trkpt>
      <trkpt lat="45.91467" lon="6.50361">
        <ele>2149.16</ele>
        <time>2019-03-08T11:21:45Z</time>
      </trkpt>
      <trkpt lat="45.91476" lon="6.50359">
        <ele>2144.36</ele>
        <time>2019-03-08T11:21:46Z</time>
      </trkpt>
      <trkpt lat="45.91481" lon="6.50364">
        <ele>2140.99</ele>
        <time>2019-03-08T11:21:47Z</time>
      </trkpt>
      <trkpt lat="45.91483" lon="6.5037">
        <ele>2136.19</ele>
        <time>2019-03-08T11:21:48Z</time>
      </trkpt>
      <trkpt lat="45.9149" lon="6.50372">
        <ele>2131.86</ele>
        <time>2019-03-08T11:21:49Z</time>
      </trkpt>
      <trkpt lat="45.91501" lon="6.50374">
        <ele>2126.57</ele>
        <time>2019-03-08T11:21:50Z</time>
      </trkpt>
      <trkpt lat="45.91513" lon="6.50373">
        <ele>2122.73</ele>
        <time>2019-03-08T11:21:51Z</time>
      </trkpt>
      <trkpt lat="45.91526" lon="6.50373">
        <ele>2114.08</ele>
        <time>2019-03-08T11:21:52Z</time>
      </trkpt>
      <trkpt lat="45.9154" lon="6.50377">
        <ele>2109.75</ele>
        <time>2019-03-08T11:21:53Z</time>
      </trkpt>
      <trkpt lat="45.91552" lon="6.50376">
        <ele>2104.94</ele>
        <time>2019-03-08T11:21:54Z</time>
      </trkpt>
      <trkpt lat="45.91565" lon="6.5037">
        <ele>2101.58</ele>
        <time>2019-03-08T11:21:55Z</time>
      </trkpt>
      <trkpt lat="45.91578" lon="6.50365">
        <ele>2096.77</ele>
        <time>2019-03-08T11:21:56Z</time>
      </trkpt>
      <trkpt lat="45.91592" lon="6.50362">
        <ele>2089.08</ele>
        <time>2019-03-08T11:21:57Z</time>
      </trkpt>
      <trkpt lat="45.91603" lon="6.50356">
        <ele>2086.2</ele>
        <time>2019-03-08T11:21:58Z</time>
      </trkpt>
      <trkpt lat="45.91611" lon="6.50343">
        <ele>2085.72</ele>
        <time>2019-03-08T11:21:59Z</time>
      </trkpt>
      <trkpt lat="45.91625" lon="6.50325">
        <ele>2078.03</ele>
        <time>2019-03-08T11:22:01Z</time>
      </trkpt>
      <trkpt lat="45.91629" lon="6.50314">
        <ele>2075.62</ele>
        <time>2019-03-08T11:22:02Z</time>
      </trkpt>
      <trkpt lat="45.91633" lon="6.50305">
        <ele>2070.82</ele>
        <time>2019-03-08T11:22:03Z</time>
      </trkpt>
      <trkpt lat="45.91632" lon="6.50295">
        <ele>2068.89</ele>
        <time>2019-03-08T11:22:04Z</time>
      </trkpt>
      <trkpt lat="45.91628" lon="6.50288">
        <ele>2068.41</ele>
        <time>2019-03-08T11:22:05Z</time>
      </trkpt>
      <trkpt lat="45.91625" lon="6.5028">
        <ele>2067.45</ele>
        <time>2019-03-08T11:22:06Z</time>
      </trkpt>
      <trkpt lat="45.91622" lon="6.50276">
        <ele>2066.49</ele>
        <time>2019-03-08T11:22:07Z</time>
      </trkpt>
      <trkpt lat="45.91618" lon="6.5027">
        <ele>2064.57</ele>
        <time>2019-03-08T11:22:08Z</time>
      </trkpt>
      <trkpt lat="45.91616" lon="6.50262">
        <ele>2061.68</ele>
        <time>2019-03-08T11:22:09Z</time>
      </trkpt>
      <trkpt lat="45.91611" lon="6.50254">
        <ele>2058.8</ele>
        <time>2019-03-08T11:22:10Z</time>
      </trkpt>
      <trkpt lat="45.91608" lon="6.50244">
        <ele>2057.36</ele>
        <time>2019-03-08T11:22:11Z</time>
      </trkpt>
      <trkpt lat="45.91606" lon="6.50234">
        <ele>2053.99</ele>
        <time>2019-03-08T11:22:12Z</time>
      </trkpt>
      <trkpt lat="45.91607" lon="6.50224">
        <ele>2052.55</ele>
        <time>2019-03-08T11:22:13Z</time>
      </trkpt>
      <trkpt lat="45.91609" lon="6.50213">
        <ele>2050.15</ele>
        <time>2019-03-08T11:22:14Z</time>
      </trkpt>
      <trkpt lat="45.91613" lon="6.50203">
        <ele>2046.78</ele>
        <time>2019-03-08T11:22:15Z</time>
      </trkpt>
      <trkpt lat="45.91615" lon="6.50194">
        <ele>2043.9</ele>
        <time>2019-03-08T11:22:16Z</time>
      </trkpt>
      <trkpt lat="45.91617" lon="6.50184">
        <ele>2042.46</ele>
        <time>2019-03-08T11:22:17Z</time>
      </trkpt>
      <trkpt lat="45.9162" lon="6.50176">
        <ele>2038.61</ele>
        <time>2019-03-08T11:22:18Z</time>
      </trkpt>
      <trkpt lat="45.91621" lon="6.50168">
        <ele>2036.21</ele>
        <time>2019-03-08T11:22:19Z</time>
      </trkpt>
      <trkpt lat="45.91619" lon="6.5016">
        <ele>2034.77</ele>
        <time>2019-03-08T11:22:20Z</time>
      </trkpt>
      <trkpt lat="45.91617" lon="6.50153">
        <ele>2032.84</ele>
        <time>2019-03-08T11:22:21Z</time>
      </trkpt>
      <trkpt lat="45.91613" lon="6.50146">
        <ele>2029.96</ele>
        <time>2019-03-08T11:22:22Z</time>
      </trkpt>
      <trkpt lat="45.91611" lon="6.50139">
        <ele>2028.04</ele>
        <time>2019-03-08T11:22:23Z</time>
      </trkpt>
      <trkpt lat="45.91609" lon="6.50133">
        <ele>2026.6</ele>
        <time>2019-03-08T11:22:24Z</time>
      </trkpt>
      <trkpt lat="45.91607" lon="6.50129">
        <ele>2025.64</ele>
        <time>2019-03-08T11:22:25Z</time>
      </trkpt>
      <trkpt lat="45.91605" lon="6.50121">
        <ele>2024.19</ele>
        <time>2019-03-08T11:22:26Z</time>
      </trkpt>
      <trkpt lat="45.91603" lon="6.50112">
        <ele>2023.23</ele>
        <time>2019-03-08T11:22:27Z</time>
      </trkpt>
      <trkpt lat="45.916" lon="6.50101">
        <ele>2022.27</ele>
        <time>2019-03-08T11:22:28Z</time>
      </trkpt>
      <trkpt lat="45.91596" lon="6.50091">
        <ele>2019.87</ele>
        <time>2019-03-08T11:22:29Z</time>
      </trkpt>
      <trkpt lat="45.91592" lon="6.50083">
        <ele>2018.43</ele>
        <time>2019-03-08T11:22:30Z</time>
      </trkpt>
      <trkpt lat="45.91587" lon="6.50076">
        <ele>2018.91</ele>
        <time>2019-03-08T11:22:31Z</time>
      </trkpt>
      <trkpt lat="45.91584" lon="6.50066">
        <ele>2018.43</ele>
        <time>2019-03-08T11:22:33Z</time>
      </trkpt>
      <trkpt lat="45.91583" lon="6.5006">
        <ele>2017.94</ele>
        <time>2019-03-08T11:22:34Z</time>
      </trkpt>
      <trkpt lat="45.91584" lon="6.50052">
        <ele>2017.46</ele>
        <time>2019-03-08T11:22:35Z</time>
      </trkpt>
      <trkpt lat="45.91584" lon="6.50044">
        <ele>2015.54</ele>
        <time>2019-03-08T11:22:36Z</time>
      </trkpt>
      <trkpt lat="45.91586" lon="6.50039">
        <ele>2013.14</ele>
        <time>2019-03-08T11:22:37Z</time>
      </trkpt>
      <trkpt lat="45.91589" lon="6.50035">
        <ele>2011.22</ele>
        <time>2019-03-08T11:22:38Z</time>
      </trkpt>
      <trkpt lat="45.91595" lon="6.5003">
        <ele>2009.77</ele>
        <time>2019-03-08T11:22:39Z</time>
      </trkpt>
      <trkpt lat="45.91599" lon="6.50024">
        <ele>2007.37</ele>
        <time>2019-03-08T11:22:40Z</time>
      </trkpt>
      <trkpt lat="45.91604" lon="6.5002">
        <ele>2004.97</ele>
        <time>2019-03-08T11:22:41Z</time>
      </trkpt>
      <trkpt lat="45.91604" lon="6.50014">
        <ele>2003.52</ele>
        <time>2019-03-08T11:22:42Z</time>
      </trkpt>
      <trkpt lat="45.91606" lon="6.50009">
        <ele>2001.12</ele>
        <time>2019-03-08T11:22:43Z</time>
      </trkpt>
      <trkpt lat="45.91609" lon="6.50008">
        <ele>1999.2</ele>
        <time>2019-03-08T11:22:44Z</time>
      </trkpt>
      <trkpt lat="45.91612" lon="6.50007">
        <ele>1997.28</ele>
        <time>2019-03-08T11:22:45Z</time>
      </trkpt>
      <trkpt lat="45.91614" lon="6.50003">
        <ele>1995.83</ele>
        <time>2019-03-08T11:22:46Z</time>
      </trkpt>
      <trkpt lat="45.91619" lon="6.5">
        <ele>1993.91</ele>
        <time>2019-03-08T11:22:47Z</time>
      </trkpt>
      <trkpt lat="45.91623" lon="6.49997">
        <ele>1991.99</ele>
        <time>2019-03-08T11:22:48Z</time>
      </trkpt>
      <trkpt lat="45.9163" lon="6.49995">
        <ele>1987.66</ele>
        <time>2019-03-08T11:22:49Z</time>
      </trkpt>
      <trkpt lat="45.91637" lon="6.49993">
        <ele>1983.82</ele>
        <time>2019-03-08T11:22:50Z</time>
      </trkpt>
      <trkpt lat="45.91641" lon="6.49989">
        <ele>1980.93</ele>
        <time>2019-03-08T11:22:51Z</time>
      </trkpt>
      <trkpt lat="45.91642" lon="6.49983">
        <ele>1979.01</ele>
        <time>2019-03-08T11:22:52Z</time>
      </trkpt>
      <trkpt lat="45.91641" lon="6.49976">
        <ele>1977.09</ele>
        <time>2019-03-08T11:22:53Z</time>
      </trkpt>
      <trkpt lat="45.91636" lon="6.49968">
        <ele>1975.65</ele>
        <time>2019-03-08T11:22:54Z</time>
      </trkpt>
      <trkpt lat="45.91638" lon="6.49963">
        <ele>1973.24</ele>
        <time>2019-03-08T11:22:56Z</time>
      </trkpt>
      <trkpt lat="45.91639" lon="6.49958">
        <ele>1973.24</ele>
        <time>2019-03-08T11:22:57Z</time>
      </trkpt>
      <trkpt lat="45.91645" lon="6.49954">
        <ele>1971.32</ele>
        <time>2019-03-08T11:22:58Z</time>
      </trkpt>
      <trkpt lat="45.91649" lon="6.4995">
        <ele>1967.48</ele>
        <time>2019-03-08T11:22:59Z</time>
      </trkpt>
      <trkpt lat="45.91649" lon="6.49941">
        <ele>1963.15</ele>
        <time>2019-03-08T11:23:00Z</time>
      </trkpt>
      <trkpt lat="45.91651" lon="6.49934">
        <ele>1959.78</ele>
        <time>2019-03-08T11:23:01Z</time>
      </trkpt>
      <trkpt lat="45.91655" lon="6.4993">
        <ele>1956.9</ele>
        <time>2019-03-08T11:23:02Z</time>
      </trkpt>
      <trkpt lat="45.91657" lon="6.49924">
        <ele>1954.02</ele>
        <time>2019-03-08T11:23:03Z</time>
      </trkpt>
      <trkpt lat="45.91661" lon="6.49919">
        <ele>1950.65</ele>
        <time>2019-03-08T11:23:04Z</time>
      </trkpt>
      <trkpt lat="45.91667" lon="6.49916">
        <ele>1947.29</ele>
        <time>2019-03-08T11:23:05Z</time>
      </trkpt>
      <trkpt lat="45.9167" lon="6.4991">
        <ele>1944.4</ele>
        <time>2019-03-08T11:23:06Z</time>
      </trkpt>
      <trkpt lat="45.91674" lon="6.49902">
        <ele>1940.56</ele>
        <time>2019-03-08T11:23:07Z</time>
      </trkpt>
      <trkpt lat="45.91673" lon="6.49894">
        <ele>1936.71</ele>
        <time>2019-03-08T11:23:08Z</time>
      </trkpt>
      <trkpt lat="45.91678" lon="6.49894">
        <ele>1933.35</ele>
        <time>2019-03-08T11:23:09Z</time>
      </trkpt>
      <trkpt lat="45.91683" lon="6.49896">
        <ele>1930.46</ele>
        <time>2019-03-08T11:23:10Z</time>
      </trkpt>
      <trkpt lat="45.91689" lon="6.49898">
        <ele>1928.06</ele>
        <time>2019-03-08T11:23:11Z</time>
      </trkpt>
      <trkpt lat="45.91695" lon="6.49895">
        <ele>1924.7</ele>
        <time>2019-03-08T11:23:12Z</time>
      </trkpt>
      <trkpt lat="45.91702" lon="6.49891">
        <ele>1921.33</ele>
        <time>2019-03-08T11:23:13Z</time>
      </trkpt>
      <trkpt lat="45.9171" lon="6.49889">
        <ele>1917.97</ele>
        <time>2019-03-08T11:23:14Z</time>
      </trkpt>
      <trkpt lat="45.91716" lon="6.49884">
        <ele>1914.6</ele>
        <time>2019-03-08T11:23:15Z</time>
      </trkpt>
      <trkpt lat="45.91722" lon="6.49877">
        <ele>1911.24</ele>
        <time>2019-03-08T11:23:16Z</time>
      </trkpt>
      <trkpt lat="45.91725" lon="6.4987">
        <ele>1908.83</ele>
        <time>2019-03-08T11:23:17Z</time>
      </trkpt>
      <trkpt lat="45.91727" lon="6.49857">
        <ele>1903.55</ele>
        <time>2019-03-08T11:23:19Z</time>
      </trkpt>
      <trkpt lat="45.91729" lon="6.49854">
        <ele>1902.59</ele>
        <time>2019-03-08T11:23:20Z</time>
      </trkpt>
      <trkpt lat="45.91731" lon="6.49852">
        <ele>1900.66</ele>
        <time>2019-03-08T11:23:21Z</time>
      </trkpt>
      <trkpt lat="45.91733" lon="6.49847">
        <ele>1899.7</ele>
        <time>2019-03-08T11:23:22Z</time>
      </trkpt>
      <trkpt lat="45.91735" lon="6.49842">
        <ele>1897.3</ele>
        <time>2019-03-08T11:23:23Z</time>
      </trkpt>
      <trkpt lat="45.9174" lon="6.4984">
        <ele>1894.9</ele>
        <time>2019-03-08T11:23:24Z</time>
      </trkpt>
      <trkpt lat="45.91742" lon="6.49834">
        <ele>1892.01</ele>
        <time>2019-03-08T11:23:25Z</time>
      </trkpt>
      <trkpt lat="45.91745" lon="6.49827">
        <ele>1889.13</ele>
        <time>2019-03-08T11:23:26Z</time>
      </trkpt>
      <trkpt lat="45.91751" lon="6.49823">
        <ele>1886.72</ele>
        <time>2019-03-08T11:23:27Z</time>
      </trkpt>
      <trkpt lat="45.91758" lon="6.49821">
        <ele>1882.4</ele>
        <time>2019-03-08T11:23:28Z</time>
      </trkpt>
      <trkpt lat="45.91763" lon="6.49816">
        <ele>1878.55</ele>
        <time>2019-03-08T11:23:29Z</time>
      </trkpt>
      <trkpt lat="45.91767" lon="6.49809">
        <ele>1874.23</ele>
        <time>2019-03-08T11:23:30Z</time>
      </trkpt>
      <trkpt lat="45.91773" lon="6.49803">
        <ele>1869.9</ele>
        <time>2019-03-08T11:23:31Z</time>
      </trkpt>
      <trkpt lat="45.91778" lon="6.49796">
        <ele>1865.58</ele>
        <time>2019-03-08T11:23:32Z</time>
      </trkpt>
      <trkpt lat="45.91778" lon="6.49787">
        <ele>1862.69</ele>
        <time>2019-03-08T11:23:33Z</time>
      </trkpt>
      <trkpt lat="45.91783" lon="6.4978">
        <ele>1857.4</ele>
        <time>2019-03-08T11:23:34Z</time>
      </trkpt>
      <trkpt lat="45.9179" lon="6.49775">
        <ele>1853.08</ele>
        <time>2019-03-08T11:23:35Z</time>
      </trkpt>
      <trkpt lat="45.91798" lon="6.4977">
        <ele>1848.75</ele>
        <time>2019-03-08T11:23:36Z</time>
      </trkpt>
      <trkpt lat="45.91804" lon="6.49762">
        <ele>1843.95</ele>
        <time>2019-03-08T11:23:37Z</time>
      </trkpt>
      <trkpt lat="45.9181" lon="6.49757">
        <ele>1839.62</ele>
        <time>2019-03-08T11:23:38Z</time>
      </trkpt>
      <trkpt lat="45.91816" lon="6.49751">
        <ele>1834.81</ele>
        <time>2019-03-08T11:23:39Z</time>
      </trkpt>
      <trkpt lat="45.91819" lon="6.49742">
        <ele>1830.01</ele>
        <time>2019-03-08T11:23:40Z</time>
      </trkpt>
      <trkpt lat="45.91823" lon="6.49734">
        <ele>1825.68</ele>
        <time>2019-03-08T11:23:41Z</time>
      </trkpt>
      <trkpt lat="45.91827" lon="6.49725">
        <ele>1822.32</ele>
        <time>2019-03-08T11:23:42Z</time>
      </trkpt>
      <trkpt lat="45.9183" lon="6.49716">
        <ele>1818.47</ele>
        <time>2019-03-08T11:23:43Z</time>
      </trkpt>
      <trkpt lat="45.91834" lon="6.4971">
        <ele>1815.11</ele>
        <time>2019-03-08T11:23:44Z</time>
      </trkpt>
      <trkpt lat="45.91839" lon="6.49705">
        <ele>1811.26</ele>
        <time>2019-03-08T11:23:45Z</time>
      </trkpt>
      <trkpt lat="45.91845" lon="6.49699">
        <ele>1806.45</ele>
        <time>2019-03-08T11:23:46Z</time>
      </trkpt>
      <trkpt lat="45.9185" lon="6.49696">
        <ele>1806.45</ele>
        <time>2019-03-08T11:23:47Z</time>
      </trkpt>
      <trkpt lat="45.91854" lon="6.49694">
        <ele>1805.49</ele>
        <time>2019-03-08T11:23:48Z</time>
      </trkpt>
      <trkpt lat="45.91856" lon="6.49691">
        <ele>1801.65</ele>
        <time>2019-03-08T11:23:49Z</time>
      </trkpt>
      <trkpt lat="45.91863" lon="6.49691">
        <ele>1796.84</ele>
        <time>2019-03-08T11:23:50Z</time>
      </trkpt>
      <trkpt lat="45.91868" lon="6.49694">
        <ele>1793</ele>
        <time>2019-03-08T11:23:51Z</time>
      </trkpt>
      <trkpt lat="45.91873" lon="6.49694">
        <ele>1789.63</ele>
        <time>2019-03-08T11:23:52Z</time>
      </trkpt>
      <trkpt lat="45.91874" lon="6.49684">
        <ele>1785.79</ele>
        <time>2019-03-08T11:23:53Z</time>
      </trkpt>
      <trkpt lat="45.9188" lon="6.49681">
        <ele>1780.98</ele>
        <time>2019-03-08T11:23:54Z</time>
      </trkpt>
      <trkpt lat="45.91887" lon="6.49676">
        <ele>1777.61</ele>
        <time>2019-03-08T11:23:55Z</time>
      </trkpt>
      <trkpt lat="45.91894" lon="6.49672">
        <ele>1773.29</ele>
        <time>2019-03-08T11:23:56Z</time>
      </trkpt>
      <trkpt lat="45.91901" lon="6.4967">
        <ele>1768.96</ele>
        <time>2019-03-08T11:23:57Z</time>
      </trkpt>
      <trkpt lat="45.91905" lon="6.49663">
        <ele>1765.12</ele>
        <time>2019-03-08T11:23:58Z</time>
      </trkpt>
      <trkpt lat="45.91913" lon="6.49658">
        <ele>1759.83</ele>
        <time>2019-03-08T11:23:59Z</time>
      </trkpt>
      <trkpt lat="45.91921" lon="6.49655">
        <ele>1755.5</ele>
        <time>2019-03-08T11:24:00Z</time>
      </trkpt>
      <trkpt lat="45.91927" lon="6.49651">
        <ele>1751.66</ele>
        <time>2019-03-08T11:24:01Z</time>
      </trkpt>
      <trkpt lat="45.91936" lon="6.49648">
        <ele>1745.89</ele>
        <time>2019-03-08T11:24:02Z</time>
      </trkpt>
      <trkpt lat="45.91942" lon="6.49643">
        <ele>1743.49</ele>
        <time>2019-03-08T11:24:03Z</time>
      </trkpt>
      <trkpt lat="45.91946" lon="6.49635">
        <ele>1739.16</ele>
        <time>2019-03-08T11:24:04Z</time>
      </trkpt>
      <trkpt lat="45.9195" lon="6.49627">
        <ele>1733.88</ele>
        <time>2019-03-08T11:24:05Z</time>
      </trkpt>
      <trkpt lat="45.91957" lon="6.49622">
        <ele>1731.47</ele>
        <time>2019-03-08T11:24:06Z</time>
      </trkpt>
      <trkpt lat="45.91964" lon="6.49615">
        <ele>1724.74</ele>
        <time>2019-03-08T11:24:07Z</time>
      </trkpt>
      <trkpt lat="45.91972" lon="6.4961">
        <ele>1720.42</ele>
        <time>2019-03-08T11:24:08Z</time>
      </trkpt>
      <trkpt lat="45.91979" lon="6.49605">
        <ele>1716.09</ele>
        <time>2019-03-08T11:24:09Z</time>
      </trkpt>
      <trkpt lat="45.9199" lon="6.49596">
        <ele>1716.09</ele>
        <time>2019-03-08T11:24:10Z</time>
      </trkpt>
      <trkpt lat="45.91994" lon="6.49585">
        <ele>1711.28</ele>
        <time>2019-03-08T11:24:11Z</time>
      </trkpt>
      <trkpt lat="45.92001" lon="6.49577">
        <ele>1706</ele>
        <time>2019-03-08T11:24:12Z</time>
      </trkpt>
      <trkpt lat="45.92008" lon="6.49568">
        <ele>1700.71</ele>
        <time>2019-03-08T11:24:13Z</time>
      </trkpt>
      <trkpt lat="45.92014" lon="6.49561">
        <ele>1693.5</ele>
        <time>2019-03-08T11:24:14Z</time>
      </trkpt>
      <trkpt lat="45.9202" lon="6.49554">
        <ele>1689.17</ele>
        <time>2019-03-08T11:24:15Z</time>
      </trkpt>
      <trkpt lat="45.92023" lon="6.49545">
        <ele>1684.37</ele>
        <time>2019-03-08T11:24:16Z</time>
      </trkpt>
      <trkpt lat="45.92029" lon="6.4954">
        <ele>1681</ele>
        <time>2019-03-08T11:24:17Z</time>
      </trkpt>
      <trkpt lat="45.92035" lon="6.49534">
        <ele>1678.6</ele>
        <time>2019-03-08T11:24:18Z</time>
      </trkpt>
      <trkpt lat="45.9204" lon="6.49527">
        <ele>1675.23</ele>
        <time>2019-03-08T11:24:19Z</time>
      </trkpt>
      <trkpt lat="45.92046" lon="6.4952">
        <ele>1669.95</ele>
        <time>2019-03-08T11:24:20Z</time>
      </trkpt>
      <trkpt lat="45.92054" lon="6.49515">
        <ele>1666.58</ele>
        <time>2019-03-08T11:24:21Z</time>
      </trkpt>
      <trkpt lat="45.92063" lon="6.49513">
        <ele>1662.26</ele>
        <time>2019-03-08T11:24:22Z</time>
      </trkpt>
      <trkpt lat="45.92072" lon="6.49511">
        <ele>1658.41</ele>
        <time>2019-03-08T11:24:23Z</time>
      </trkpt>
      <trkpt lat="45.92078" lon="6.49508">
        <ele>1654.09</ele>
        <time>2019-03-08T11:24:24Z</time>
      </trkpt>
      <trkpt lat="45.92082" lon="6.49503">
        <ele>1650.72</ele>
        <time>2019-03-08T11:24:25Z</time>
      </trkpt>
      <trkpt lat="45.92085" lon="6.49497">
        <ele>1647.36</ele>
        <time>2019-03-08T11:24:26Z</time>
      </trkpt>
      <trkpt lat="45.92086" lon="6.49483">
        <ele>1642.07</ele>
        <time>2019-03-08T11:24:28Z</time>
      </trkpt>
      <trkpt lat="45.92085" lon="6.49477">
        <ele>1640.63</ele>
        <time>2019-03-08T11:24:29Z</time>
      </trkpt>
      <trkpt lat="45.92087" lon="6.49473">
        <ele>1638.7</ele>
        <time>2019-03-08T11:24:30Z</time>
      </trkpt>
      <trkpt lat="45.92089" lon="6.49469">
        <ele>1636.78</ele>
        <time>2019-03-08T11:24:31Z</time>
      </trkpt>
      <trkpt lat="45.92089" lon="6.49464">
        <ele>1634.86</ele>
        <time>2019-03-08T11:24:32Z</time>
      </trkpt>
      <trkpt lat="45.92091" lon="6.49464">
        <ele>1632.46</ele>
        <time>2019-03-08T11:24:33Z</time>
      </trkpt>
      <trkpt lat="45.92093" lon="6.49466">
        <ele>1631.01</ele>
        <time>2019-03-08T11:24:34Z</time>
      </trkpt>
      <trkpt lat="45.92094" lon="6.49462">
        <ele>1629.57</ele>
        <time>2019-03-08T11:24:35Z</time>
      </trkpt>
      <trkpt lat="45.92095" lon="6.49458">
        <ele>1628.13</ele>
        <time>2019-03-08T11:24:36Z</time>
      </trkpt>
      <trkpt lat="45.92098" lon="6.49457">
        <ele>1626.21</ele>
        <time>2019-03-08T11:24:37Z</time>
      </trkpt>
      <trkpt lat="45.92102" lon="6.49457">
        <ele>1623.8</ele>
        <time>2019-03-08T11:24:38Z</time>
      </trkpt>
      <trkpt lat="45.92106" lon="6.49455">
        <ele>1621.4</ele>
        <time>2019-03-08T11:24:39Z</time>
      </trkpt>
      <trkpt lat="45.9211" lon="6.49453">
        <ele>1619</ele>
        <time>2019-03-08T11:24:40Z</time>
      </trkpt>
      <trkpt lat="45.92111" lon="6.4945">
        <ele>1617.07</ele>
        <time>2019-03-08T11:24:41Z</time>
      </trkpt>
      <trkpt lat="45.92112" lon="6.49447">
        <ele>1614.67</ele>
        <time>2019-03-08T11:24:42Z</time>
      </trkpt>
      <trkpt lat="45.92114" lon="6.49446">
        <ele>1612.27</ele>
        <time>2019-03-08T11:24:43Z</time>
      </trkpt>
      <trkpt lat="45.92116" lon="6.49448">
        <ele>1611.31</ele>
        <time>2019-03-08T11:24:44Z</time>
      </trkpt>
      <trkpt lat="45.92122" lon="6.4945">
        <ele>1609.38</ele>
        <time>2019-03-08T11:24:45Z</time>
      </trkpt>
      <trkpt lat="45.92122" lon="6.49453">
        <ele>1608.42</ele>
        <time>2019-03-08T11:24:46Z</time>
      </trkpt>
      <trkpt lat="45.92121" lon="6.49453">
        <ele>1606.98</ele>
        <time>2019-03-08T11:24:47Z</time>
      </trkpt>
      <trkpt lat="45.92123" lon="6.49448">
        <ele>1604.58</ele>
        <time>2019-03-08T11:24:48Z</time>
      </trkpt>
      <trkpt lat="45.92127" lon="6.49448">
        <ele>1602.17</ele>
        <time>2019-03-08T11:24:49Z</time>
      </trkpt>
      <trkpt lat="45.92132" lon="6.49448">
        <ele>1597.85</ele>
        <time>2019-03-08T11:24:51Z</time>
      </trkpt>
      <trkpt lat="45.92136" lon="6.49445">
        <ele>1595.45</ele>
        <time>2019-03-08T11:24:52Z</time>
      </trkpt>
      <trkpt lat="45.92143" lon="6.49443">
        <ele>1592.56</ele>
        <time>2019-03-08T11:24:53Z</time>
      </trkpt>
      <trkpt lat="45.92148" lon="6.49441">
        <ele>1589.68</ele>
        <time>2019-03-08T11:24:54Z</time>
      </trkpt>
      <trkpt lat="45.92151" lon="6.49436">
        <ele>1586.79</ele>
        <time>2019-03-08T11:24:55Z</time>
      </trkpt>
      <trkpt lat="45.92157" lon="6.49432">
        <ele>1583.91</ele>
        <time>2019-03-08T11:24:56Z</time>
      </trkpt>
      <trkpt lat="45.92163" lon="6.4943">
        <ele>1580.54</ele>
        <time>2019-03-08T11:24:57Z</time>
      </trkpt>
      <trkpt lat="45.92167" lon="6.49424">
        <ele>1578.62</ele>
        <time>2019-03-08T11:24:58Z</time>
      </trkpt>
      <trkpt lat="45.92174" lon="6.49422">
        <ele>1574.78</ele>
        <time>2019-03-08T11:24:59Z</time>
      </trkpt>
      <trkpt lat="45.92178" lon="6.4942">
        <ele>1571.89</ele>
        <time>2019-03-08T11:25:00Z</time>
      </trkpt>
      <trkpt lat="45.92183" lon="6.49416">
        <ele>1569.97</ele>
        <time>2019-03-08T11:25:01Z</time>
      </trkpt>
      <trkpt lat="45.92189" lon="6.49414">
        <ele>1567.09</ele>
        <time>2019-03-08T11:25:02Z</time>
      </trkpt>
      <trkpt lat="45.92195" lon="6.49411">
        <ele>1564.68</ele>
        <time>2019-03-08T11:25:03Z</time>
      </trkpt>
      <trkpt lat="45.92199" lon="6.49405">
        <ele>1562.28</ele>
        <time>2019-03-08T11:25:04Z</time>
      </trkpt>
      <trkpt lat="45.92199" lon="6.49397">
        <ele>1560.36</ele>
        <time>2019-03-08T11:25:05Z</time>
      </trkpt>
      <trkpt lat="45.92196" lon="6.49387">
        <ele>1559.4</ele>
        <time>2019-03-08T11:25:06Z</time>
      </trkpt>
      <trkpt lat="45.92203" lon="6.49383">
        <ele>1557.47</ele>
        <time>2019-03-08T11:25:07Z</time>
      </trkpt>
      <trkpt lat="45.92206" lon="6.49378">
        <ele>1555.55</ele>
        <time>2019-03-08T11:25:08Z</time>
      </trkpt>
      <trkpt lat="45.92209" lon="6.49372">
        <ele>1553.63</ele>
        <time>2019-03-08T11:25:09Z</time>
      </trkpt>
      <trkpt lat="45.92212" lon="6.49365">
        <ele>1552.19</ele>
        <time>2019-03-08T11:25:10Z</time>
      </trkpt>
      <trkpt lat="45.92214" lon="6.49357">
        <ele>1550.26</ele>
        <time>2019-03-08T11:25:11Z</time>
      </trkpt>
      <trkpt lat="45.92214" lon="6.49349">
        <ele>1548.82</ele>
        <time>2019-03-08T11:25:12Z</time>
      </trkpt>
      <trkpt lat="45.92212" lon="6.49342">
        <ele>1546.9</ele>
        <time>2019-03-08T11:25:13Z</time>
      </trkpt>
      <trkpt lat="45.92211" lon="6.49336">
        <ele>1545.94</ele>
        <time>2019-03-08T11:25:14Z</time>
      </trkpt>
      <trkpt lat="45.92212" lon="6.4933">
        <ele>1544.01</ele>
        <time>2019-03-08T11:25:15Z</time>
      </trkpt>
      <trkpt lat="45.92215" lon="6.49328">
        <ele>1541.61</ele>
        <time>2019-03-08T11:25:16Z</time>
      </trkpt>
      <trkpt lat="45.92217" lon="6.49327">
        <ele>1540.65</ele>
        <time>2019-03-08T11:25:17Z</time>
      </trkpt>
      <trkpt lat="45.92221" lon="6.49326">
        <ele>1539.69</ele>
        <time>2019-03-08T11:25:18Z</time>
      </trkpt>
      <trkpt lat="45.92223" lon="6.49322">
        <ele>1538.25</ele>
        <time>2019-03-08T11:25:19Z</time>
      </trkpt>
      <trkpt lat="45.92226" lon="6.49316">
        <ele>1535.84</ele>
        <time>2019-03-08T11:25:20Z</time>
      </trkpt>
      <trkpt lat="45.9221" lon="6.4931">
        <ele>1534.4</ele>
        <time>2019-03-08T11:25:21Z</time>
      </trkpt>
      <trkpt lat="45.92213" lon="6.49305">
        <ele>1532.48</ele>
        <time>2019-03-08T11:25:22Z</time>
      </trkpt>
      <trkpt lat="45.92201" lon="6.49296">
        <ele>1530.56</ele>
        <time>2019-03-08T11:25:23Z</time>
      </trkpt>
      <trkpt lat="45.92198" lon="6.49291">
        <ele>1528.63</ele>
        <time>2019-03-08T11:25:24Z</time>
      </trkpt>
      <trkpt lat="45.92196" lon="6.49285">
        <ele>1527.19</ele>
        <time>2019-03-08T11:25:25Z</time>
      </trkpt>
      <trkpt lat="45.92197" lon="6.49278">
        <ele>1525.27</ele>
        <time>2019-03-08T11:25:26Z</time>
      </trkpt>
      <trkpt lat="45.92197" lon="6.4927">
        <ele>1523.83</ele>
        <time>2019-03-08T11:25:27Z</time>
      </trkpt>
      <trkpt lat="45.92196" lon="6.49262">
        <ele>1520.94</ele>
        <time>2019-03-08T11:25:28Z</time>
      </trkpt>
      <trkpt lat="45.92196" lon="6.49253">
        <ele>1519.02</ele>
        <time>2019-03-08T11:25:29Z</time>
      </trkpt>
      <trkpt lat="45.92194" lon="6.49245">
        <ele>1517.1</ele>
        <time>2019-03-08T11:25:30Z</time>
      </trkpt>
      <trkpt lat="45.92192" lon="6.49237">
        <ele>1515.18</ele>
        <time>2019-03-08T11:25:31Z</time>
      </trkpt>
      <trkpt lat="45.92192" lon="6.49229">
        <ele>1512.77</ele>
        <time>2019-03-08T11:25:32Z</time>
      </trkpt>
      <trkpt lat="45.92193" lon="6.49222">
        <ele>1511.33</ele>
        <time>2019-03-08T11:25:33Z</time>
      </trkpt>
      <trkpt lat="45.92192" lon="6.49214">
        <ele>1510.37</ele>
        <time>2019-03-08T11:25:34Z</time>
      </trkpt>
      <trkpt lat="45.9219" lon="6.49197">
        <ele>1506.04</ele>
        <time>2019-03-08T11:25:36Z</time>
      </trkpt>
      <trkpt lat="45.9219" lon="6.49188">
        <ele>1503.64</ele>
        <time>2019-03-08T11:25:37Z</time>
      </trkpt>
      <trkpt lat="45.92191" lon="6.49177">
        <ele>1501.24</ele>
        <time>2019-03-08T11:25:38Z</time>
      </trkpt>
      <trkpt lat="45.92192" lon="6.49167">
        <ele>1499.79</ele>
        <time>2019-03-08T11:25:39Z</time>
      </trkpt>
      <trkpt lat="45.9219" lon="6.49158">
        <ele>1497.87</ele>
        <time>2019-03-08T11:25:40Z</time>
      </trkpt>
      <trkpt lat="45.92188" lon="6.49147">
        <ele>1495.47</ele>
        <time>2019-03-08T11:25:41Z</time>
      </trkpt>
      <trkpt lat="45.92186" lon="6.49136">
        <ele>1493.55</ele>
        <time>2019-03-08T11:25:42Z</time>
      </trkpt>
      <trkpt lat="45.92183" lon="6.49125">
        <ele>1492.1</ele>
        <time>2019-03-08T11:25:43Z</time>
      </trkpt>
      <trkpt lat="45.92179" lon="6.49116">
        <ele>1490.18</ele>
        <time>2019-03-08T11:25:44Z</time>
      </trkpt>
      <trkpt lat="45.92175" lon="6.49106">
        <ele>1487.3</ele>
        <time>2019-03-08T11:25:45Z</time>
      </trkpt>
      <trkpt lat="45.92172" lon="6.49095">
        <ele>1484.41</ele>
        <time>2019-03-08T11:25:46Z</time>
      </trkpt>
      <trkpt lat="45.92171" lon="6.49082">
        <ele>1482.49</ele>
        <time>2019-03-08T11:25:47Z</time>
      </trkpt>
      <trkpt lat="45.92171" lon="6.4907">
        <ele>1481.53</ele>
        <time>2019-03-08T11:25:48Z</time>
      </trkpt>
      <trkpt lat="45.92171" lon="6.49056">
        <ele>1480.09</ele>
        <time>2019-03-08T11:25:49Z</time>
      </trkpt>
      <trkpt lat="45.9217" lon="6.49042">
        <ele>1477.68</ele>
        <time>2019-03-08T11:25:50Z</time>
      </trkpt>
      <trkpt lat="45.92169" lon="6.49014">
        <ele>1473.36</ele>
        <time>2019-03-08T11:25:52Z</time>
      </trkpt>
      <trkpt lat="45.92168" lon="6.48972">
        <ele>1468.55</ele>
        <time>2019-03-08T11:25:55Z</time>
      </trkpt>
      <trkpt lat="45.92167" lon="6.48944">
        <ele>1465.19</ele>
        <time>2019-03-08T11:25:57Z</time>
      </trkpt>
      <trkpt lat="45.92165" lon="6.48918">
        <ele>1460.86</ele>
        <time>2019-03-08T11:25:59Z</time>
      </trkpt>
      <trkpt lat="45.92164" lon="6.48883">
        <ele>1457.5</ele>
        <time>2019-03-08T11:26:02Z</time>
      </trkpt>
      <trkpt lat="45.92163" lon="6.48854">
        <ele>1456.53</ele>
        <time>2019-03-08T11:26:05Z</time>
      </trkpt>
      <trkpt lat="45.92164" lon="6.48849">
        <ele>1457.02</ele>
        <time>2019-03-08T11:26:06Z</time>
      </trkpt>
      <trkpt lat="45.92166" lon="6.48845">
        <ele>1457.5</ele>
        <time>2019-03-08T11:26:07Z</time>
      </trkpt>
      <trkpt lat="45.92167" lon="6.48842">
        <ele>1457.98</ele>
        <time>2019-03-08T11:26:08Z</time>
      </trkpt>
      <trkpt lat="45.92169" lon="6.4884">
        <ele>1458.94</ele>
        <time>2019-03-08T11:26:09Z</time>
      </trkpt>
      <trkpt lat="45.92171" lon="6.48835">
        <ele>1459.42</ele>
        <time>2019-03-08T11:26:11Z</time>
      </trkpt>
      <trkpt lat="45.92178" lon="6.48817">
        <ele>1461.34</ele>
        <time>2019-03-08T11:26:20Z</time>
      </trkpt>
      <trkpt lat="45.92167" lon="6.48766">
        <ele>1464.71</ele>
        <time>2019-03-08T11:26:43Z</time>
      </trkpt>
      <trkpt lat="45.92162" lon="6.48747">
        <ele>1466.63</ele>
        <time>2019-03-08T11:26:54Z</time>
      </trkpt>
      <trkpt lat="45.92162" lon="6.48745">
        <ele>1466.63</ele>
        <time>2019-03-08T11:26:55Z</time>
      </trkpt>
      <trkpt lat="45.9216" lon="6.48736">
        <ele>1467.11</ele>
        <time>2019-03-08T11:27:00Z</time>
      </trkpt>
      <trkpt lat="45.9216" lon="6.48734">
        <ele>1467.59</ele>
        <time>2019-03-08T11:27:01Z</time>
      </trkpt>
      <trkpt lat="45.92155" lon="6.48719">
        <ele>1468.07</ele>
        <time>2019-03-08T11:27:09Z</time>
      </trkpt>
      <trkpt lat="45.92154" lon="6.48716">
        <ele>1468.07</ele>
        <time>2019-03-08T11:27:10Z</time>
      </trkpt>
      <trkpt lat="45.92152" lon="6.48715">
        <ele>1468.07</ele>
        <time>2019-03-08T11:27:11Z</time>
      </trkpt>
      <trkpt lat="45.92152" lon="6.48713">
        <ele>1468.07</ele>
        <time>2019-03-08T11:27:12Z</time>
      </trkpt>
      <trkpt lat="45.92151" lon="6.48712">
        <ele>1468.55</ele>
        <time>2019-03-08T11:27:13Z</time>
      </trkpt>
      <trkpt lat="45.9215" lon="6.48709">
        <ele>1468.55</ele>
        <time>2019-03-08T11:27:15Z</time>
      </trkpt>
      <trkpt lat="45.92149" lon="6.48708">
        <ele>1469.03</ele>
        <time>2019-03-08T11:27:16Z</time>
      </trkpt>
      <trkpt lat="45.92137" lon="6.4869">
        <ele>1469.51</ele>
        <time>2019-03-08T11:27:29Z</time>
      </trkpt>
      <trkpt lat="45.92136" lon="6.48689">
        <ele>1469.51</ele>
        <time>2019-03-08T11:27:30Z</time>
      </trkpt>
      <trkpt lat="45.92136" lon="6.48688">
        <ele>1469.51</ele>
        <time>2019-03-08T11:27:31Z</time>
      </trkpt>
      <trkpt lat="45.9213" lon="6.48663">
        <ele>1467.11</ele>
        <time>2019-03-08T11:27:39Z</time>
      </trkpt>
      <trkpt lat="45.9213" lon="6.48655">
        <ele>1465.19</ele>
        <time>2019-03-08T11:27:40Z</time>
      </trkpt>
      <trkpt lat="45.92132" lon="6.48647">
        <ele>1464.23</ele>
        <time>2019-03-08T11:27:41Z</time>
      </trkpt>
      <trkpt lat="45.92133" lon="6.4864">
        <ele>1464.23</ele>
        <time>2019-03-08T11:27:42Z</time>
      </trkpt>
      <trkpt lat="45.92135" lon="6.48635">
        <ele>1464.23</ele>
        <time>2019-03-08T11:27:43Z</time>
      </trkpt>
      <trkpt lat="45.92137" lon="6.4863">
        <ele>1464.23</ele>
        <time>2019-03-08T11:27:44Z</time>
      </trkpt>
      <trkpt lat="45.92159" lon="6.48583">
        <ele>1460.86</ele>
        <time>2019-03-08T11:27:55Z</time>
      </trkpt>
      <trkpt lat="45.9217" lon="6.48558">
        <ele>1459.42</ele>
        <time>2019-03-08T11:28:00Z</time>
      </trkpt>
      <trkpt lat="45.92185" lon="6.48518">
        <ele>1455.57</ele>
        <time>2019-03-08T11:28:06Z</time>
      </trkpt>
      <trkpt lat="45.92197" lon="6.48492">
        <ele>1452.21</ele>
        <time>2019-03-08T11:28:10Z</time>
      </trkpt>
      <trkpt lat="45.92204" lon="6.48481">
        <ele>1451.25</ele>
        <time>2019-03-08T11:28:12Z</time>
      </trkpt>
      <trkpt lat="45.92218" lon="6.48461">
        <ele>1450.77</ele>
        <time>2019-03-08T11:28:16Z</time>
      </trkpt>
      <trkpt lat="45.92222" lon="6.48457">
        <ele>1449.81</ele>
        <time>2019-03-08T11:28:17Z</time>
      </trkpt>
      <trkpt lat="45.92254" lon="6.4841">
        <ele>1448.84</ele>
        <time>2019-03-08T11:28:40Z</time>
      </trkpt>
      <trkpt lat="45.92254" lon="6.48399">
        <ele>1448.36</ele>
        <time>2019-03-08T11:28:53Z</time>
      </trkpt>
    </trkseg>
  </trk>
</gpx>